<?xml version="1.0" encoding="UTF-8" standalone="no" ?>
<gpx xmlns="http://www.topografix.com/GPX/1/1" xmlns:xsi="http://www.w3.org/2001/XMLSchema-instance" xsi:schemaLocation="http://www.topografix.com/GPX/1/1 http://www.topografix.com/GPX/1/1/gpx.xsd" version="1.1" creator="VisuGPX - https://www.visugpx.com">
  <metadata>
    <name>48-D-Servières</name>
    <desc><![CDATA[48-D-Servières : le Gévaudan]]></desc>
  </metadata>
  <trk>
    <name><![CDATA[2016-06-07-servieres]]></name>
    <trkseg>
      <trkpt lat="44.57512" lon="3.40472">
        <ele>1004.4</ele>
        <time>2016-06-07T06:27:52Z</time>
      </trkpt>
      <trkpt lat="44.5751" lon="3.40468">
        <ele>1005</ele>
        <time>2016-06-07T06:28:14Z</time>
      </trkpt>
      <trkpt lat="44.5751" lon="3.40473">
        <ele>1004.2</ele>
        <time>2016-06-07T06:28:34Z</time>
      </trkpt>
      <trkpt lat="44.57509" lon="3.40477">
        <ele>1003.8</ele>
        <time>2016-06-07T06:28:54Z</time>
      </trkpt>
      <trkpt lat="44.57509" lon="3.40477">
        <ele>1004.1</ele>
        <time>2016-06-07T06:28:55Z</time>
      </trkpt>
      <trkpt lat="44.57507" lon="3.40469">
        <ele>1004.2</ele>
        <time>2016-06-07T06:29:34Z</time>
      </trkpt>
      <trkpt lat="44.57511" lon="3.40465">
        <ele>1003</ele>
        <time>2016-06-07T06:29:56Z</time>
      </trkpt>
      <trkpt lat="44.57512" lon="3.40469">
        <ele>1003.9</ele>
        <time>2016-06-07T06:29:58Z</time>
      </trkpt>
      <trkpt lat="44.57508" lon="3.40475">
        <ele>1001</ele>
        <time>2016-06-07T06:30:38Z</time>
      </trkpt>
      <trkpt lat="44.57509" lon="3.40475">
        <ele>1003</ele>
        <time>2016-06-07T06:31:00Z</time>
      </trkpt>
      <trkpt lat="44.57508" lon="3.40472">
        <ele>1003</ele>
        <time>2016-06-07T06:31:02Z</time>
      </trkpt>
      <trkpt lat="44.57504" lon="3.4047">
        <ele>1002</ele>
        <time>2016-06-07T06:31:44Z</time>
      </trkpt>
      <trkpt lat="44.57507" lon="3.40467">
        <ele>1002.4</ele>
        <time>2016-06-07T06:32:04Z</time>
      </trkpt>
      <trkpt lat="44.57507" lon="3.40468">
        <ele>1002.7</ele>
        <time>2016-06-07T06:32:05Z</time>
      </trkpt>
      <trkpt lat="44.57509" lon="3.40476">
        <ele>1002</ele>
        <time>2016-06-07T06:32:46Z</time>
      </trkpt>
      <trkpt lat="44.57508" lon="3.40476">
        <ele>1002.2</ele>
        <time>2016-06-07T06:33:06Z</time>
      </trkpt>
      <trkpt lat="44.57508" lon="3.40476">
        <ele>1002.1</ele>
        <time>2016-06-07T06:33:07Z</time>
      </trkpt>
      <trkpt lat="44.57515" lon="3.40488">
        <ele>1002.5</ele>
        <time>2016-06-07T06:33:46Z</time>
      </trkpt>
      <trkpt lat="44.57523" lon="3.40492">
        <ele>1003.1</ele>
        <time>2016-06-07T06:34:06Z</time>
      </trkpt>
      <trkpt lat="44.57522" lon="3.40492">
        <ele>1002.9</ele>
        <time>2016-06-07T06:34:29Z</time>
      </trkpt>
      <trkpt lat="44.57523" lon="3.40492">
        <ele>1002.8</ele>
        <time>2016-06-07T06:34:30Z</time>
      </trkpt>
      <trkpt lat="44.5753" lon="3.40493">
        <ele>1002.9</ele>
        <time>2016-06-07T06:35:09Z</time>
      </trkpt>
      <trkpt lat="44.57526" lon="3.40497">
        <ele>1002.9</ele>
        <time>2016-06-07T06:35:29Z</time>
      </trkpt>
      <trkpt lat="44.57532" lon="3.40493">
        <ele>1003.2</ele>
        <time>2016-06-07T06:35:49Z</time>
      </trkpt>
      <trkpt lat="44.57532" lon="3.40493">
        <ele>1003.4</ele>
        <time>2016-06-07T06:35:50Z</time>
      </trkpt>
      <trkpt lat="44.57531" lon="3.40495">
        <ele>1004.7</ele>
        <time>2016-06-07T06:36:29Z</time>
      </trkpt>
      <trkpt lat="44.57535" lon="3.40502">
        <ele>1005.4</ele>
        <time>2016-06-07T06:36:49Z</time>
      </trkpt>
      <trkpt lat="44.57521" lon="3.40524">
        <ele>1006.3</ele>
        <time>2016-06-07T06:37:09Z</time>
      </trkpt>
      <trkpt lat="44.57521" lon="3.40526">
        <ele>1006.3</ele>
        <time>2016-06-07T06:37:10Z</time>
      </trkpt>
      <trkpt lat="44.57513" lon="3.40573">
        <ele>1004</ele>
        <time>2016-06-07T06:37:49Z</time>
      </trkpt>
      <trkpt lat="44.57516" lon="3.40586">
        <ele>1003.1</ele>
        <time>2016-06-07T06:38:09Z</time>
      </trkpt>
      <trkpt lat="44.5752" lon="3.40594">
        <ele>1002.8</ele>
        <time>2016-06-07T06:38:29Z</time>
      </trkpt>
      <trkpt lat="44.57521" lon="3.40595">
        <ele>1002.3</ele>
        <time>2016-06-07T06:38:30Z</time>
      </trkpt>
      <trkpt lat="44.57533" lon="3.40621">
        <ele>1001</ele>
        <time>2016-06-07T06:39:09Z</time>
      </trkpt>
      <trkpt lat="44.57537" lon="3.40632">
        <ele>999.7</ele>
        <time>2016-06-07T06:39:29Z</time>
      </trkpt>
      <trkpt lat="44.57543" lon="3.40645">
        <ele>998.1</ele>
        <time>2016-06-07T06:39:49Z</time>
      </trkpt>
      <trkpt lat="44.57543" lon="3.40646">
        <ele>998</ele>
        <time>2016-06-07T06:39:50Z</time>
      </trkpt>
      <trkpt lat="44.57562" lon="3.40686">
        <ele>992.8</ele>
        <time>2016-06-07T06:40:29Z</time>
      </trkpt>
      <trkpt lat="44.57574" lon="3.40707">
        <ele>992.5</ele>
        <time>2016-06-07T06:40:49Z</time>
      </trkpt>
      <trkpt lat="44.57575" lon="3.40712">
        <ele>990.7</ele>
        <time>2016-06-07T06:41:09Z</time>
      </trkpt>
      <trkpt lat="44.57575" lon="3.40713">
        <ele>990.7</ele>
        <time>2016-06-07T06:41:10Z</time>
      </trkpt>
      <trkpt lat="44.57581" lon="3.40722">
        <ele>990.1</ele>
        <time>2016-06-07T06:41:49Z</time>
      </trkpt>
      <trkpt lat="44.57585" lon="3.40723">
        <ele>989.8</ele>
        <time>2016-06-07T06:42:09Z</time>
      </trkpt>
      <trkpt lat="44.5759" lon="3.40735">
        <ele>990.1</ele>
        <time>2016-06-07T06:42:29Z</time>
      </trkpt>
      <trkpt lat="44.5759" lon="3.40736">
        <ele>990.1</ele>
        <time>2016-06-07T06:42:30Z</time>
      </trkpt>
      <trkpt lat="44.57622" lon="3.40789">
        <ele>989.3</ele>
        <time>2016-06-07T06:43:09Z</time>
      </trkpt>
      <trkpt lat="44.5764" lon="3.40818">
        <ele>987.3</ele>
        <time>2016-06-07T06:43:29Z</time>
      </trkpt>
      <trkpt lat="44.57655" lon="3.40844">
        <ele>984.3</ele>
        <time>2016-06-07T06:43:49Z</time>
      </trkpt>
      <trkpt lat="44.57655" lon="3.40846">
        <ele>984.3</ele>
        <time>2016-06-07T06:43:50Z</time>
      </trkpt>
      <trkpt lat="44.57679" lon="3.40894">
        <ele>979.1</ele>
        <time>2016-06-07T06:44:29Z</time>
      </trkpt>
      <trkpt lat="44.57684" lon="3.409">
        <ele>978.7</ele>
        <time>2016-06-07T06:44:49Z</time>
      </trkpt>
      <trkpt lat="44.57695" lon="3.40918">
        <ele>975.2</ele>
        <time>2016-06-07T06:45:09Z</time>
      </trkpt>
      <trkpt lat="44.57696" lon="3.40918">
        <ele>974.4</ele>
        <time>2016-06-07T06:45:10Z</time>
      </trkpt>
      <trkpt lat="44.57702" lon="3.40931">
        <ele>966.8</ele>
        <time>2016-06-07T06:45:49Z</time>
      </trkpt>
      <trkpt lat="44.57693" lon="3.40934">
        <ele>965</ele>
        <time>2016-06-07T06:46:09Z</time>
      </trkpt>
      <trkpt lat="44.57684" lon="3.40937">
        <ele>964.7</ele>
        <time>2016-06-07T06:46:29Z</time>
      </trkpt>
      <trkpt lat="44.57684" lon="3.40936">
        <ele>964.5</ele>
        <time>2016-06-07T06:46:30Z</time>
      </trkpt>
      <trkpt lat="44.57677" lon="3.40933">
        <ele>964.9</ele>
        <time>2016-06-07T06:47:09Z</time>
      </trkpt>
      <trkpt lat="44.57678" lon="3.40937">
        <ele>964.8</ele>
        <time>2016-06-07T06:47:29Z</time>
      </trkpt>
      <trkpt lat="44.57689" lon="3.40947">
        <ele>967.1</ele>
        <time>2016-06-07T06:47:49Z</time>
      </trkpt>
      <trkpt lat="44.5769" lon="3.40947">
        <ele>966.8</ele>
        <time>2016-06-07T06:47:50Z</time>
      </trkpt>
      <trkpt lat="44.57703" lon="3.4094">
        <ele>969.5</ele>
        <time>2016-06-07T06:48:29Z</time>
      </trkpt>
      <trkpt lat="44.57707" lon="3.40934">
        <ele>969.1</ele>
        <time>2016-06-07T06:48:49Z</time>
      </trkpt>
      <trkpt lat="44.57715" lon="3.4092">
        <ele>969.9</ele>
        <time>2016-06-07T06:49:09Z</time>
      </trkpt>
      <trkpt lat="44.57714" lon="3.40919">
        <ele>970.2</ele>
        <time>2016-06-07T06:49:10Z</time>
      </trkpt>
      <trkpt lat="44.57712" lon="3.40915">
        <ele>970.1</ele>
        <time>2016-06-07T06:49:49Z</time>
      </trkpt>
      <trkpt lat="44.57714" lon="3.40915">
        <ele>969.7</ele>
        <time>2016-06-07T06:50:09Z</time>
      </trkpt>
      <trkpt lat="44.57711" lon="3.40919">
        <ele>971.7</ele>
        <time>2016-06-07T06:50:29Z</time>
      </trkpt>
      <trkpt lat="44.57711" lon="3.40919">
        <ele>971.4</ele>
        <time>2016-06-07T06:50:30Z</time>
      </trkpt>
      <trkpt lat="44.57709" lon="3.4092">
        <ele>971.3</ele>
        <time>2016-06-07T06:51:09Z</time>
      </trkpt>
      <trkpt lat="44.57709" lon="3.40918">
        <ele>971.7</ele>
        <time>2016-06-07T06:51:29Z</time>
      </trkpt>
      <trkpt lat="44.57709" lon="3.40916">
        <ele>972.1</ele>
        <time>2016-06-07T06:51:49Z</time>
      </trkpt>
      <trkpt lat="44.57709" lon="3.40916">
        <ele>972</ele>
        <time>2016-06-07T06:51:50Z</time>
      </trkpt>
      <trkpt lat="44.57709" lon="3.40932">
        <ele>970.9</ele>
        <time>2016-06-07T06:52:29Z</time>
      </trkpt>
      <trkpt lat="44.57705" lon="3.40932">
        <ele>970.1</ele>
        <time>2016-06-07T06:52:49Z</time>
      </trkpt>
      <trkpt lat="44.57699" lon="3.40935">
        <ele>969</ele>
        <time>2016-06-07T06:53:09Z</time>
      </trkpt>
      <trkpt lat="44.57699" lon="3.40936">
        <ele>969.2</ele>
        <time>2016-06-07T06:53:10Z</time>
      </trkpt>
      <trkpt lat="44.57716" lon="3.4095">
        <ele>963.7</ele>
        <time>2016-06-07T06:53:49Z</time>
      </trkpt>
      <trkpt lat="44.57716" lon="3.40952">
        <ele>963.2</ele>
        <time>2016-06-07T06:54:09Z</time>
      </trkpt>
      <trkpt lat="44.57727" lon="3.40953">
        <ele>961.4</ele>
        <time>2016-06-07T06:54:29Z</time>
      </trkpt>
      <trkpt lat="44.57727" lon="3.40952">
        <ele>961</ele>
        <time>2016-06-07T06:54:30Z</time>
      </trkpt>
      <trkpt lat="44.57751" lon="3.40943">
        <ele>956.2</ele>
        <time>2016-06-07T06:55:09Z</time>
      </trkpt>
      <trkpt lat="44.57762" lon="3.40938">
        <ele>953.8</ele>
        <time>2016-06-07T06:55:29Z</time>
      </trkpt>
      <trkpt lat="44.57771" lon="3.40934">
        <ele>950.4</ele>
        <time>2016-06-07T06:55:49Z</time>
      </trkpt>
      <trkpt lat="44.57771" lon="3.40934">
        <ele>950.2</ele>
        <time>2016-06-07T06:55:50Z</time>
      </trkpt>
      <trkpt lat="44.57799" lon="3.4092">
        <ele>944.7</ele>
        <time>2016-06-07T06:56:29Z</time>
      </trkpt>
      <trkpt lat="44.57815" lon="3.40917">
        <ele>942</ele>
        <time>2016-06-07T06:56:49Z</time>
      </trkpt>
      <trkpt lat="44.57829" lon="3.40914">
        <ele>939.5</ele>
        <time>2016-06-07T06:57:09Z</time>
      </trkpt>
      <trkpt lat="44.57831" lon="3.40913">
        <ele>939.3</ele>
        <time>2016-06-07T06:57:10Z</time>
      </trkpt>
      <trkpt lat="44.57861" lon="3.40913">
        <ele>932.7</ele>
        <time>2016-06-07T06:57:49Z</time>
      </trkpt>
      <trkpt lat="44.57879" lon="3.40916">
        <ele>930.2</ele>
        <time>2016-06-07T06:58:09Z</time>
      </trkpt>
      <trkpt lat="44.57889" lon="3.40919">
        <ele>927.1</ele>
        <time>2016-06-07T06:58:29Z</time>
      </trkpt>
      <trkpt lat="44.5789" lon="3.40919">
        <ele>927</ele>
        <time>2016-06-07T06:58:30Z</time>
      </trkpt>
      <trkpt lat="44.57909" lon="3.40934">
        <ele>921.6</ele>
        <time>2016-06-07T06:59:09Z</time>
      </trkpt>
      <trkpt lat="44.57925" lon="3.4093">
        <ele>919.6</ele>
        <time>2016-06-07T06:59:29Z</time>
      </trkpt>
      <trkpt lat="44.57938" lon="3.40934">
        <ele>915.6</ele>
        <time>2016-06-07T06:59:49Z</time>
      </trkpt>
      <trkpt lat="44.57938" lon="3.40935">
        <ele>915.4</ele>
        <time>2016-06-07T06:59:50Z</time>
      </trkpt>
      <trkpt lat="44.5796" lon="3.40936">
        <ele>911.5</ele>
        <time>2016-06-07T07:00:29Z</time>
      </trkpt>
      <trkpt lat="44.57973" lon="3.40924">
        <ele>910.8</ele>
        <time>2016-06-07T07:00:49Z</time>
      </trkpt>
      <trkpt lat="44.57978" lon="3.40923">
        <ele>909.1</ele>
        <time>2016-06-07T07:01:09Z</time>
      </trkpt>
      <trkpt lat="44.57976" lon="3.40923">
        <ele>909.2</ele>
        <time>2016-06-07T07:01:10Z</time>
      </trkpt>
      <trkpt lat="44.57996" lon="3.40912">
        <ele>906.5</ele>
        <time>2016-06-07T07:01:49Z</time>
      </trkpt>
      <trkpt lat="44.58014" lon="3.40912">
        <ele>906.5</ele>
        <time>2016-06-07T07:02:09Z</time>
      </trkpt>
      <trkpt lat="44.58006" lon="3.40908">
        <ele>906.9</ele>
        <time>2016-06-07T07:02:29Z</time>
      </trkpt>
      <trkpt lat="44.58007" lon="3.40907">
        <ele>906.4</ele>
        <time>2016-06-07T07:02:30Z</time>
      </trkpt>
      <trkpt lat="44.58031" lon="3.40896">
        <ele>907.1</ele>
        <time>2016-06-07T07:03:11Z</time>
      </trkpt>
      <trkpt lat="44.5802" lon="3.40905">
        <ele>907.3</ele>
        <time>2016-06-07T07:03:31Z</time>
      </trkpt>
      <trkpt lat="44.5802" lon="3.40906">
        <ele>907.8</ele>
        <time>2016-06-07T07:03:32Z</time>
      </trkpt>
      <trkpt lat="44.58047" lon="3.40925">
        <ele>910.8</ele>
        <time>2016-06-07T07:04:11Z</time>
      </trkpt>
      <trkpt lat="44.58057" lon="3.40925">
        <ele>913.8</ele>
        <time>2016-06-07T07:04:31Z</time>
      </trkpt>
      <trkpt lat="44.58076" lon="3.40921">
        <ele>915.6</ele>
        <time>2016-06-07T07:04:51Z</time>
      </trkpt>
      <trkpt lat="44.58077" lon="3.40921">
        <ele>915.3</ele>
        <time>2016-06-07T07:04:52Z</time>
      </trkpt>
      <trkpt lat="44.58091" lon="3.40894">
        <ele>915.7</ele>
        <time>2016-06-07T07:05:31Z</time>
      </trkpt>
      <trkpt lat="44.58093" lon="3.40902">
        <ele>916.1</ele>
        <time>2016-06-07T07:05:51Z</time>
      </trkpt>
      <trkpt lat="44.58093" lon="3.40907">
        <ele>915.9</ele>
        <time>2016-06-07T07:06:11Z</time>
      </trkpt>
      <trkpt lat="44.58093" lon="3.40907">
        <ele>916</ele>
        <time>2016-06-07T07:06:12Z</time>
      </trkpt>
      <trkpt lat="44.58113" lon="3.40901">
        <ele>920.7</ele>
        <time>2016-06-07T07:06:51Z</time>
      </trkpt>
      <trkpt lat="44.58136" lon="3.40896">
        <ele>921.5</ele>
        <time>2016-06-07T07:07:11Z</time>
      </trkpt>
      <trkpt lat="44.58159" lon="3.40897">
        <ele>920.4</ele>
        <time>2016-06-07T07:07:31Z</time>
      </trkpt>
      <trkpt lat="44.5816" lon="3.40897">
        <ele>920.6</ele>
        <time>2016-06-07T07:07:32Z</time>
      </trkpt>
      <trkpt lat="44.58194" lon="3.40891">
        <ele>922.3</ele>
        <time>2016-06-07T07:08:11Z</time>
      </trkpt>
      <trkpt lat="44.58205" lon="3.40886">
        <ele>923.2</ele>
        <time>2016-06-07T07:08:31Z</time>
      </trkpt>
      <trkpt lat="44.58221" lon="3.4089">
        <ele>926.5</ele>
        <time>2016-06-07T07:08:51Z</time>
      </trkpt>
      <trkpt lat="44.58221" lon="3.4089">
        <ele>926.5</ele>
        <time>2016-06-07T07:08:52Z</time>
      </trkpt>
      <trkpt lat="44.5825" lon="3.40882">
        <ele>931.2</ele>
        <time>2016-06-07T07:09:31Z</time>
      </trkpt>
      <trkpt lat="44.58266" lon="3.40879">
        <ele>935</ele>
        <time>2016-06-07T07:09:51Z</time>
      </trkpt>
      <trkpt lat="44.58278" lon="3.40877">
        <ele>937.4</ele>
        <time>2016-06-07T07:10:11Z</time>
      </trkpt>
      <trkpt lat="44.58279" lon="3.40878">
        <ele>937.3</ele>
        <time>2016-06-07T07:10:12Z</time>
      </trkpt>
      <trkpt lat="44.58293" lon="3.40878">
        <ele>939.4</ele>
        <time>2016-06-07T07:10:51Z</time>
      </trkpt>
      <trkpt lat="44.58293" lon="3.40879">
        <ele>939.3</ele>
        <time>2016-06-07T07:11:11Z</time>
      </trkpt>
      <trkpt lat="44.58295" lon="3.40877">
        <ele>940.8</ele>
        <time>2016-06-07T07:11:31Z</time>
      </trkpt>
      <trkpt lat="44.58295" lon="3.40876">
        <ele>940.5</ele>
        <time>2016-06-07T07:11:32Z</time>
      </trkpt>
      <trkpt lat="44.58288" lon="3.40879">
        <ele>938.9</ele>
        <time>2016-06-07T07:12:11Z</time>
      </trkpt>
      <trkpt lat="44.58302" lon="3.40889">
        <ele>939.7</ele>
        <time>2016-06-07T07:12:31Z</time>
      </trkpt>
      <trkpt lat="44.58315" lon="3.40907">
        <ele>941.8</ele>
        <time>2016-06-07T07:12:51Z</time>
      </trkpt>
      <trkpt lat="44.58315" lon="3.40908">
        <ele>941.9</ele>
        <time>2016-06-07T07:12:52Z</time>
      </trkpt>
      <trkpt lat="44.58346" lon="3.40934">
        <ele>942.7</ele>
        <time>2016-06-07T07:13:31Z</time>
      </trkpt>
      <trkpt lat="44.58362" lon="3.40946">
        <ele>942.6</ele>
        <time>2016-06-07T07:13:51Z</time>
      </trkpt>
      <trkpt lat="44.58377" lon="3.40965">
        <ele>944.5</ele>
        <time>2016-06-07T07:14:11Z</time>
      </trkpt>
      <trkpt lat="44.58377" lon="3.40966">
        <ele>944.8</ele>
        <time>2016-06-07T07:14:12Z</time>
      </trkpt>
      <trkpt lat="44.58404" lon="3.40999">
        <ele>947.9</ele>
        <time>2016-06-07T07:14:51Z</time>
      </trkpt>
      <trkpt lat="44.58417" lon="3.41013">
        <ele>949.4</ele>
        <time>2016-06-07T07:15:11Z</time>
      </trkpt>
      <trkpt lat="44.58433" lon="3.41025">
        <ele>951.4</ele>
        <time>2016-06-07T07:15:31Z</time>
      </trkpt>
      <trkpt lat="44.58434" lon="3.41025">
        <ele>951.5</ele>
        <time>2016-06-07T07:15:32Z</time>
      </trkpt>
      <trkpt lat="44.58465" lon="3.41059">
        <ele>955.6</ele>
        <time>2016-06-07T07:16:11Z</time>
      </trkpt>
      <trkpt lat="44.58479" lon="3.41075">
        <ele>956.3</ele>
        <time>2016-06-07T07:16:31Z</time>
      </trkpt>
      <trkpt lat="44.58487" lon="3.41093">
        <ele>957</ele>
        <time>2016-06-07T07:16:51Z</time>
      </trkpt>
      <trkpt lat="44.58487" lon="3.41093">
        <ele>957.9</ele>
        <time>2016-06-07T07:16:52Z</time>
      </trkpt>
      <trkpt lat="44.58466" lon="3.4109">
        <ele>961.3</ele>
        <time>2016-06-07T07:17:31Z</time>
      </trkpt>
      <trkpt lat="44.58457" lon="3.41086">
        <ele>962.9</ele>
        <time>2016-06-07T07:17:51Z</time>
      </trkpt>
      <trkpt lat="44.58445" lon="3.41078">
        <ele>964.6</ele>
        <time>2016-06-07T07:18:11Z</time>
      </trkpt>
      <trkpt lat="44.58444" lon="3.41078">
        <ele>964.7</ele>
        <time>2016-06-07T07:18:12Z</time>
      </trkpt>
      <trkpt lat="44.58411" lon="3.41067">
        <ele>965.7</ele>
        <time>2016-06-07T07:18:51Z</time>
      </trkpt>
      <trkpt lat="44.58393" lon="3.41067">
        <ele>965.8</ele>
        <time>2016-06-07T07:19:11Z</time>
      </trkpt>
      <trkpt lat="44.58373" lon="3.41058">
        <ele>966.3</ele>
        <time>2016-06-07T07:19:31Z</time>
      </trkpt>
      <trkpt lat="44.58372" lon="3.41057">
        <ele>966.3</ele>
        <time>2016-06-07T07:19:32Z</time>
      </trkpt>
      <trkpt lat="44.58335" lon="3.41039">
        <ele>969.3</ele>
        <time>2016-06-07T07:20:11Z</time>
      </trkpt>
      <trkpt lat="44.58318" lon="3.41031">
        <ele>970.4</ele>
        <time>2016-06-07T07:20:31Z</time>
      </trkpt>
      <trkpt lat="44.583" lon="3.41023">
        <ele>972.4</ele>
        <time>2016-06-07T07:20:51Z</time>
      </trkpt>
      <trkpt lat="44.58299" lon="3.41023">
        <ele>972.8</ele>
        <time>2016-06-07T07:20:52Z</time>
      </trkpt>
      <trkpt lat="44.58262" lon="3.41019">
        <ele>976.3</ele>
        <time>2016-06-07T07:21:31Z</time>
      </trkpt>
      <trkpt lat="44.58243" lon="3.41028">
        <ele>979.3</ele>
        <time>2016-06-07T07:21:51Z</time>
      </trkpt>
      <trkpt lat="44.58228" lon="3.4104">
        <ele>980.2</ele>
        <time>2016-06-07T07:22:11Z</time>
      </trkpt>
      <trkpt lat="44.58227" lon="3.41041">
        <ele>980.3</ele>
        <time>2016-06-07T07:22:12Z</time>
      </trkpt>
      <trkpt lat="44.58197" lon="3.4107">
        <ele>984.2</ele>
        <time>2016-06-07T07:22:51Z</time>
      </trkpt>
      <trkpt lat="44.58182" lon="3.41083">
        <ele>985.6</ele>
        <time>2016-06-07T07:23:11Z</time>
      </trkpt>
      <trkpt lat="44.58168" lon="3.41094">
        <ele>988.2</ele>
        <time>2016-06-07T07:23:31Z</time>
      </trkpt>
      <trkpt lat="44.58168" lon="3.41095">
        <ele>988.3</ele>
        <time>2016-06-07T07:23:32Z</time>
      </trkpt>
      <trkpt lat="44.58146" lon="3.41132">
        <ele>991.3</ele>
        <time>2016-06-07T07:24:11Z</time>
      </trkpt>
      <trkpt lat="44.58137" lon="3.41152">
        <ele>994.4</ele>
        <time>2016-06-07T07:24:31Z</time>
      </trkpt>
      <trkpt lat="44.58128" lon="3.41172">
        <ele>994.8</ele>
        <time>2016-06-07T07:24:51Z</time>
      </trkpt>
      <trkpt lat="44.58128" lon="3.41173">
        <ele>995.3</ele>
        <time>2016-06-07T07:24:52Z</time>
      </trkpt>
      <trkpt lat="44.58111" lon="3.4122">
        <ele>997.8</ele>
        <time>2016-06-07T07:25:31Z</time>
      </trkpt>
      <trkpt lat="44.58105" lon="3.41245">
        <ele>999.7</ele>
        <time>2016-06-07T07:25:51Z</time>
      </trkpt>
      <trkpt lat="44.58109" lon="3.41269">
        <ele>1001.8</ele>
        <time>2016-06-07T07:26:11Z</time>
      </trkpt>
      <trkpt lat="44.58109" lon="3.4127">
        <ele>1002</ele>
        <time>2016-06-07T07:26:12Z</time>
      </trkpt>
      <trkpt lat="44.58144" lon="3.41283">
        <ele>1003.2</ele>
        <time>2016-06-07T07:26:51Z</time>
      </trkpt>
      <trkpt lat="44.58166" lon="3.41279">
        <ele>1003</ele>
        <time>2016-06-07T07:27:11Z</time>
      </trkpt>
      <trkpt lat="44.58185" lon="3.41277">
        <ele>1004.2</ele>
        <time>2016-06-07T07:27:31Z</time>
      </trkpt>
      <trkpt lat="44.58186" lon="3.41277">
        <ele>1004.4</ele>
        <time>2016-06-07T07:27:32Z</time>
      </trkpt>
      <trkpt lat="44.58215" lon="3.41287">
        <ele>1005</ele>
        <time>2016-06-07T07:28:11Z</time>
      </trkpt>
      <trkpt lat="44.58233" lon="3.413">
        <ele>1005.2</ele>
        <time>2016-06-07T07:28:31Z</time>
      </trkpt>
      <trkpt lat="44.58243" lon="3.41317">
        <ele>1007.7</ele>
        <time>2016-06-07T07:28:51Z</time>
      </trkpt>
      <trkpt lat="44.58243" lon="3.41317">
        <ele>1007.6</ele>
        <time>2016-06-07T07:28:52Z</time>
      </trkpt>
      <trkpt lat="44.58251" lon="3.41359">
        <ele>1007.9</ele>
        <time>2016-06-07T07:29:31Z</time>
      </trkpt>
      <trkpt lat="44.58262" lon="3.41384">
        <ele>1008.6</ele>
        <time>2016-06-07T07:29:51Z</time>
      </trkpt>
      <trkpt lat="44.58275" lon="3.41405">
        <ele>1010.4</ele>
        <time>2016-06-07T07:30:11Z</time>
      </trkpt>
      <trkpt lat="44.58275" lon="3.41405">
        <ele>1010.6</ele>
        <time>2016-06-07T07:30:12Z</time>
      </trkpt>
      <trkpt lat="44.58297" lon="3.41439">
        <ele>1012.9</ele>
        <time>2016-06-07T07:30:51Z</time>
      </trkpt>
      <trkpt lat="44.5831" lon="3.41458">
        <ele>1015.7</ele>
        <time>2016-06-07T07:31:11Z</time>
      </trkpt>
      <trkpt lat="44.58324" lon="3.41481">
        <ele>1016.3</ele>
        <time>2016-06-07T07:31:31Z</time>
      </trkpt>
      <trkpt lat="44.58325" lon="3.41482">
        <ele>1016.4</ele>
        <time>2016-06-07T07:31:32Z</time>
      </trkpt>
      <trkpt lat="44.58351" lon="3.4152">
        <ele>1018.4</ele>
        <time>2016-06-07T07:32:11Z</time>
      </trkpt>
      <trkpt lat="44.58374" lon="3.41519">
        <ele>1020.3</ele>
        <time>2016-06-07T07:32:31Z</time>
      </trkpt>
      <trkpt lat="44.58397" lon="3.41509">
        <ele>1019.6</ele>
        <time>2016-06-07T07:32:51Z</time>
      </trkpt>
      <trkpt lat="44.58398" lon="3.41508">
        <ele>1020.1</ele>
        <time>2016-06-07T07:32:52Z</time>
      </trkpt>
      <trkpt lat="44.58436" lon="3.41511">
        <ele>1020.6</ele>
        <time>2016-06-07T07:33:31Z</time>
      </trkpt>
      <trkpt lat="44.58447" lon="3.41532">
        <ele>1020.2</ele>
        <time>2016-06-07T07:33:51Z</time>
      </trkpt>
      <trkpt lat="44.58461" lon="3.41554">
        <ele>1021</ele>
        <time>2016-06-07T07:34:11Z</time>
      </trkpt>
      <trkpt lat="44.58462" lon="3.41555">
        <ele>1020.7</ele>
        <time>2016-06-07T07:34:12Z</time>
      </trkpt>
      <trkpt lat="44.58497" lon="3.41597">
        <ele>1021.5</ele>
        <time>2016-06-07T07:34:51Z</time>
      </trkpt>
      <trkpt lat="44.58512" lon="3.41617">
        <ele>1020.5</ele>
        <time>2016-06-07T07:35:11Z</time>
      </trkpt>
      <trkpt lat="44.58525" lon="3.41632">
        <ele>1021.6</ele>
        <time>2016-06-07T07:35:31Z</time>
      </trkpt>
      <trkpt lat="44.58526" lon="3.41632">
        <ele>1021.5</ele>
        <time>2016-06-07T07:35:32Z</time>
      </trkpt>
      <trkpt lat="44.58559" lon="3.41658">
        <ele>1022.2</ele>
        <time>2016-06-07T07:36:11Z</time>
      </trkpt>
      <trkpt lat="44.58577" lon="3.41675">
        <ele>1022.9</ele>
        <time>2016-06-07T07:36:31Z</time>
      </trkpt>
      <trkpt lat="44.58592" lon="3.41692">
        <ele>1024.7</ele>
        <time>2016-06-07T07:36:51Z</time>
      </trkpt>
      <trkpt lat="44.58592" lon="3.41692">
        <ele>1025.3</ele>
        <time>2016-06-07T07:36:52Z</time>
      </trkpt>
      <trkpt lat="44.58613" lon="3.41716">
        <ele>1026.1</ele>
        <time>2016-06-07T07:37:31Z</time>
      </trkpt>
      <trkpt lat="44.5862" lon="3.41721">
        <ele>1027.2</ele>
        <time>2016-06-07T07:37:51Z</time>
      </trkpt>
      <trkpt lat="44.5863" lon="3.41737">
        <ele>1028</ele>
        <time>2016-06-07T07:38:11Z</time>
      </trkpt>
      <trkpt lat="44.58631" lon="3.41738">
        <ele>1027.8</ele>
        <time>2016-06-07T07:38:12Z</time>
      </trkpt>
      <trkpt lat="44.58657" lon="3.4177">
        <ele>1031.5</ele>
        <time>2016-06-07T07:38:51Z</time>
      </trkpt>
      <trkpt lat="44.58676" lon="3.4179">
        <ele>1031.9</ele>
        <time>2016-06-07T07:39:11Z</time>
      </trkpt>
      <trkpt lat="44.58691" lon="3.41806">
        <ele>1033.6</ele>
        <time>2016-06-07T07:39:31Z</time>
      </trkpt>
      <trkpt lat="44.58691" lon="3.41807">
        <ele>1033.7</ele>
        <time>2016-06-07T07:39:32Z</time>
      </trkpt>
      <trkpt lat="44.58727" lon="3.41846">
        <ele>1037.5</ele>
        <time>2016-06-07T07:40:11Z</time>
      </trkpt>
      <trkpt lat="44.58745" lon="3.41864">
        <ele>1039.1</ele>
        <time>2016-06-07T07:40:31Z</time>
      </trkpt>
      <trkpt lat="44.5876" lon="3.41883">
        <ele>1038.5</ele>
        <time>2016-06-07T07:40:51Z</time>
      </trkpt>
      <trkpt lat="44.58761" lon="3.41884">
        <ele>1038.1</ele>
        <time>2016-06-07T07:40:52Z</time>
      </trkpt>
      <trkpt lat="44.58798" lon="3.41916">
        <ele>1039.8</ele>
        <time>2016-06-07T07:41:31Z</time>
      </trkpt>
      <trkpt lat="44.58814" lon="3.4193">
        <ele>1042.3</ele>
        <time>2016-06-07T07:41:51Z</time>
      </trkpt>
      <trkpt lat="44.58833" lon="3.41939">
        <ele>1043</ele>
        <time>2016-06-07T07:42:11Z</time>
      </trkpt>
      <trkpt lat="44.58834" lon="3.41938">
        <ele>1042.5</ele>
        <time>2016-06-07T07:42:12Z</time>
      </trkpt>
      <trkpt lat="44.58871" lon="3.4196">
        <ele>1043.9</ele>
        <time>2016-06-07T07:42:51Z</time>
      </trkpt>
      <trkpt lat="44.58889" lon="3.41976">
        <ele>1044.8</ele>
        <time>2016-06-07T07:43:11Z</time>
      </trkpt>
      <trkpt lat="44.58902" lon="3.41988">
        <ele>1049</ele>
        <time>2016-06-07T07:43:31Z</time>
      </trkpt>
      <trkpt lat="44.58903" lon="3.41989">
        <ele>1049</ele>
        <time>2016-06-07T07:43:32Z</time>
      </trkpt>
      <trkpt lat="44.58927" lon="3.42029">
        <ele>1052.6</ele>
        <time>2016-06-07T07:44:11Z</time>
      </trkpt>
      <trkpt lat="44.5894" lon="3.42053">
        <ele>1054.5</ele>
        <time>2016-06-07T07:44:31Z</time>
      </trkpt>
      <trkpt lat="44.5895" lon="3.42076">
        <ele>1055.6</ele>
        <time>2016-06-07T07:44:51Z</time>
      </trkpt>
      <trkpt lat="44.5895" lon="3.42076">
        <ele>1055.6</ele>
        <time>2016-06-07T07:44:52Z</time>
      </trkpt>
      <trkpt lat="44.58949" lon="3.42079">
        <ele>1055.6</ele>
        <time>2016-06-07T07:45:31Z</time>
      </trkpt>
      <trkpt lat="44.58951" lon="3.4208">
        <ele>1055.9</ele>
        <time>2016-06-07T07:45:51Z</time>
      </trkpt>
      <trkpt lat="44.58953" lon="3.42078">
        <ele>1057.1</ele>
        <time>2016-06-07T07:46:11Z</time>
      </trkpt>
      <trkpt lat="44.58953" lon="3.42078">
        <ele>1057.2</ele>
        <time>2016-06-07T07:46:12Z</time>
      </trkpt>
      <trkpt lat="44.58951" lon="3.42073">
        <ele>1056.4</ele>
        <time>2016-06-07T07:46:51Z</time>
      </trkpt>
      <trkpt lat="44.5895" lon="3.42074">
        <ele>1056.9</ele>
        <time>2016-06-07T07:47:11Z</time>
      </trkpt>
      <trkpt lat="44.58951" lon="3.42074">
        <ele>1057.6</ele>
        <time>2016-06-07T07:47:31Z</time>
      </trkpt>
      <trkpt lat="44.58951" lon="3.42074">
        <ele>1057.4</ele>
        <time>2016-06-07T07:47:32Z</time>
      </trkpt>
      <trkpt lat="44.5895" lon="3.42073">
        <ele>1056.5</ele>
        <time>2016-06-07T07:48:11Z</time>
      </trkpt>
      <trkpt lat="44.58952" lon="3.42075">
        <ele>1057.3</ele>
        <time>2016-06-07T07:48:31Z</time>
      </trkpt>
      <trkpt lat="44.58951" lon="3.42074">
        <ele>1057.5</ele>
        <time>2016-06-07T07:48:51Z</time>
      </trkpt>
      <trkpt lat="44.58951" lon="3.42074">
        <ele>1057</ele>
        <time>2016-06-07T07:48:52Z</time>
      </trkpt>
      <trkpt lat="44.58951" lon="3.42074">
        <ele>1058.4</ele>
        <time>2016-06-07T07:49:31Z</time>
      </trkpt>
      <trkpt lat="44.58951" lon="3.42076">
        <ele>1058.6</ele>
        <time>2016-06-07T07:49:51Z</time>
      </trkpt>
      <trkpt lat="44.58951" lon="3.42076">
        <ele>1059.1</ele>
        <time>2016-06-07T07:50:11Z</time>
      </trkpt>
      <trkpt lat="44.58951" lon="3.42076">
        <ele>1058.7</ele>
        <time>2016-06-07T07:50:12Z</time>
      </trkpt>
      <trkpt lat="44.58952" lon="3.42075">
        <ele>1058.9</ele>
        <time>2016-06-07T07:50:51Z</time>
      </trkpt>
      <trkpt lat="44.58952" lon="3.42077">
        <ele>1059.5</ele>
        <time>2016-06-07T07:51:11Z</time>
      </trkpt>
      <trkpt lat="44.58952" lon="3.42074">
        <ele>1059</ele>
        <time>2016-06-07T07:51:31Z</time>
      </trkpt>
      <trkpt lat="44.58952" lon="3.42074">
        <ele>1058.7</ele>
        <time>2016-06-07T07:51:32Z</time>
      </trkpt>
      <trkpt lat="44.58951" lon="3.42084">
        <ele>1057.7</ele>
        <time>2016-06-07T07:52:11Z</time>
      </trkpt>
      <trkpt lat="44.58951" lon="3.42084">
        <ele>1058.4</ele>
        <time>2016-06-07T07:52:31Z</time>
      </trkpt>
      <trkpt lat="44.58949" lon="3.4208">
        <ele>1058.1</ele>
        <time>2016-06-07T07:52:51Z</time>
      </trkpt>
      <trkpt lat="44.5895" lon="3.4208">
        <ele>1058</ele>
        <time>2016-06-07T07:52:52Z</time>
      </trkpt>
      <trkpt lat="44.58951" lon="3.42079">
        <ele>1059.4</ele>
        <time>2016-06-07T07:53:31Z</time>
      </trkpt>
      <trkpt lat="44.58951" lon="3.42082">
        <ele>1059.7</ele>
        <time>2016-06-07T07:53:51Z</time>
      </trkpt>
      <trkpt lat="44.58951" lon="3.42082">
        <ele>1060</ele>
        <time>2016-06-07T07:54:11Z</time>
      </trkpt>
      <trkpt lat="44.58951" lon="3.42082">
        <ele>1059.9</ele>
        <time>2016-06-07T07:54:12Z</time>
      </trkpt>
      <trkpt lat="44.5896" lon="3.4209">
        <ele>1060.3</ele>
        <time>2016-06-07T07:54:51Z</time>
      </trkpt>
      <trkpt lat="44.58976" lon="3.42103">
        <ele>1057.6</ele>
        <time>2016-06-07T07:55:11Z</time>
      </trkpt>
      <trkpt lat="44.5898" lon="3.42114">
        <ele>1055.4</ele>
        <time>2016-06-07T07:55:31Z</time>
      </trkpt>
      <trkpt lat="44.5898" lon="3.42114">
        <ele>1055</ele>
        <time>2016-06-07T07:55:32Z</time>
      </trkpt>
      <trkpt lat="44.5895" lon="3.42125">
        <ele>1050.7</ele>
        <time>2016-06-07T07:56:11Z</time>
      </trkpt>
      <trkpt lat="44.58939" lon="3.42137">
        <ele>1049.1</ele>
        <time>2016-06-07T07:56:31Z</time>
      </trkpt>
      <trkpt lat="44.58927" lon="3.4216">
        <ele>1047.2</ele>
        <time>2016-06-07T07:56:51Z</time>
      </trkpt>
      <trkpt lat="44.58926" lon="3.42162">
        <ele>1047.3</ele>
        <time>2016-06-07T07:56:52Z</time>
      </trkpt>
      <trkpt lat="44.589" lon="3.42197">
        <ele>1043.5</ele>
        <time>2016-06-07T07:57:31Z</time>
      </trkpt>
      <trkpt lat="44.58891" lon="3.42219">
        <ele>1042.2</ele>
        <time>2016-06-07T07:57:51Z</time>
      </trkpt>
      <trkpt lat="44.58904" lon="3.42239">
        <ele>1042.4</ele>
        <time>2016-06-07T07:58:11Z</time>
      </trkpt>
      <trkpt lat="44.58906" lon="3.4224">
        <ele>1042.3</ele>
        <time>2016-06-07T07:58:12Z</time>
      </trkpt>
      <trkpt lat="44.58945" lon="3.42243">
        <ele>1042.9</ele>
        <time>2016-06-07T07:58:51Z</time>
      </trkpt>
      <trkpt lat="44.58959" lon="3.42257">
        <ele>1042.9</ele>
        <time>2016-06-07T07:59:11Z</time>
      </trkpt>
      <trkpt lat="44.58979" lon="3.42259">
        <ele>1043.9</ele>
        <time>2016-06-07T07:59:31Z</time>
      </trkpt>
      <trkpt lat="44.58979" lon="3.42259">
        <ele>1043.1</ele>
        <time>2016-06-07T07:59:32Z</time>
      </trkpt>
      <trkpt lat="44.59006" lon="3.42268">
        <ele>1047.4</ele>
        <time>2016-06-07T08:00:11Z</time>
      </trkpt>
      <trkpt lat="44.59025" lon="3.42279">
        <ele>1049.3</ele>
        <time>2016-06-07T08:00:31Z</time>
      </trkpt>
      <trkpt lat="44.59038" lon="3.42286">
        <ele>1051.5</ele>
        <time>2016-06-07T08:00:51Z</time>
      </trkpt>
      <trkpt lat="44.59039" lon="3.42287">
        <ele>1051.2</ele>
        <time>2016-06-07T08:00:52Z</time>
      </trkpt>
      <trkpt lat="44.5908" lon="3.42313">
        <ele>1055.9</ele>
        <time>2016-06-07T08:01:31Z</time>
      </trkpt>
      <trkpt lat="44.59093" lon="3.42327">
        <ele>1057.4</ele>
        <time>2016-06-07T08:01:51Z</time>
      </trkpt>
      <trkpt lat="44.59109" lon="3.42339">
        <ele>1059.9</ele>
        <time>2016-06-07T08:02:11Z</time>
      </trkpt>
      <trkpt lat="44.5911" lon="3.4234">
        <ele>1060.1</ele>
        <time>2016-06-07T08:02:12Z</time>
      </trkpt>
      <trkpt lat="44.59124" lon="3.42367">
        <ele>1063.8</ele>
        <time>2016-06-07T08:02:51Z</time>
      </trkpt>
      <trkpt lat="44.59129" lon="3.42385">
        <ele>1065.6</ele>
        <time>2016-06-07T08:03:11Z</time>
      </trkpt>
      <trkpt lat="44.59138" lon="3.4239">
        <ele>1068.2</ele>
        <time>2016-06-07T08:03:31Z</time>
      </trkpt>
      <trkpt lat="44.59139" lon="3.4239">
        <ele>1068.4</ele>
        <time>2016-06-07T08:03:31Z</time>
      </trkpt>
      <trkpt lat="44.59168" lon="3.42388">
        <ele>1073.1</ele>
        <time>2016-06-07T08:04:11Z</time>
      </trkpt>
      <trkpt lat="44.59187" lon="3.42397">
        <ele>1077</ele>
        <time>2016-06-07T08:04:31Z</time>
      </trkpt>
      <trkpt lat="44.59198" lon="3.42405">
        <ele>1079</ele>
        <time>2016-06-07T08:04:51Z</time>
      </trkpt>
      <trkpt lat="44.59199" lon="3.42405">
        <ele>1079.3</ele>
        <time>2016-06-07T08:04:52Z</time>
      </trkpt>
      <trkpt lat="44.59226" lon="3.42408">
        <ele>1084.5</ele>
        <time>2016-06-07T08:05:31Z</time>
      </trkpt>
      <trkpt lat="44.59233" lon="3.42399">
        <ele>1086.5</ele>
        <time>2016-06-07T08:05:51Z</time>
      </trkpt>
      <trkpt lat="44.59243" lon="3.42378">
        <ele>1086.6</ele>
        <time>2016-06-07T08:06:11Z</time>
      </trkpt>
      <trkpt lat="44.59243" lon="3.42377">
        <ele>1086.7</ele>
        <time>2016-06-07T08:06:12Z</time>
      </trkpt>
      <trkpt lat="44.59248" lon="3.42394">
        <ele>1089.7</ele>
        <time>2016-06-07T08:06:51Z</time>
      </trkpt>
      <trkpt lat="44.59249" lon="3.4242">
        <ele>1091.1</ele>
        <time>2016-06-07T08:07:11Z</time>
      </trkpt>
      <trkpt lat="44.59253" lon="3.42443">
        <ele>1092</ele>
        <time>2016-06-07T08:07:31Z</time>
      </trkpt>
      <trkpt lat="44.59253" lon="3.42445">
        <ele>1092.1</ele>
        <time>2016-06-07T08:07:32Z</time>
      </trkpt>
      <trkpt lat="44.59254" lon="3.42485">
        <ele>1096.8</ele>
        <time>2016-06-07T08:08:11Z</time>
      </trkpt>
      <trkpt lat="44.5926" lon="3.42492">
        <ele>1097.9</ele>
        <time>2016-06-07T08:08:31Z</time>
      </trkpt>
      <trkpt lat="44.59269" lon="3.42495">
        <ele>1098.2</ele>
        <time>2016-06-07T08:08:51Z</time>
      </trkpt>
      <trkpt lat="44.59269" lon="3.42495">
        <ele>1098.3</ele>
        <time>2016-06-07T08:08:52Z</time>
      </trkpt>
      <trkpt lat="44.59294" lon="3.42513">
        <ele>1102.6</ele>
        <time>2016-06-07T08:09:31Z</time>
      </trkpt>
      <trkpt lat="44.59301" lon="3.42517">
        <ele>1100.4</ele>
        <time>2016-06-07T08:09:51Z</time>
      </trkpt>
      <trkpt lat="44.59303" lon="3.42516">
        <ele>1100.5</ele>
        <time>2016-06-07T08:10:11Z</time>
      </trkpt>
      <trkpt lat="44.59303" lon="3.42516">
        <ele>1100.6</ele>
        <time>2016-06-07T08:10:12Z</time>
      </trkpt>
      <trkpt lat="44.59332" lon="3.42532">
        <ele>1099.7</ele>
        <time>2016-06-07T08:10:51Z</time>
      </trkpt>
      <trkpt lat="44.59351" lon="3.42557">
        <ele>1096.7</ele>
        <time>2016-06-07T08:11:11Z</time>
      </trkpt>
      <trkpt lat="44.59369" lon="3.42578">
        <ele>1094.7</ele>
        <time>2016-06-07T08:11:31Z</time>
      </trkpt>
      <trkpt lat="44.59369" lon="3.42579">
        <ele>1094.9</ele>
        <time>2016-06-07T08:11:32Z</time>
      </trkpt>
      <trkpt lat="44.594" lon="3.4262">
        <ele>1090.7</ele>
        <time>2016-06-07T08:12:11Z</time>
      </trkpt>
      <trkpt lat="44.59418" lon="3.42628">
        <ele>1089.7</ele>
        <time>2016-06-07T08:12:31Z</time>
      </trkpt>
      <trkpt lat="44.59436" lon="3.42639">
        <ele>1089</ele>
        <time>2016-06-07T08:12:51Z</time>
      </trkpt>
      <trkpt lat="44.59437" lon="3.4264">
        <ele>1089.2</ele>
        <time>2016-06-07T08:12:52Z</time>
      </trkpt>
      <trkpt lat="44.5947" lon="3.4267">
        <ele>1086</ele>
        <time>2016-06-07T08:13:31Z</time>
      </trkpt>
      <trkpt lat="44.59487" lon="3.42688">
        <ele>1084.8</ele>
        <time>2016-06-07T08:13:51Z</time>
      </trkpt>
      <trkpt lat="44.59502" lon="3.42706">
        <ele>1083.1</ele>
        <time>2016-06-07T08:14:11Z</time>
      </trkpt>
      <trkpt lat="44.59502" lon="3.42706">
        <ele>1082.1</ele>
        <time>2016-06-07T08:14:12Z</time>
      </trkpt>
      <trkpt lat="44.59527" lon="3.42733">
        <ele>1080.5</ele>
        <time>2016-06-07T08:14:51Z</time>
      </trkpt>
      <trkpt lat="44.59548" lon="3.42742">
        <ele>1080.2</ele>
        <time>2016-06-07T08:15:11Z</time>
      </trkpt>
      <trkpt lat="44.5957" lon="3.42748">
        <ele>1077.5</ele>
        <time>2016-06-07T08:15:31Z</time>
      </trkpt>
      <trkpt lat="44.59571" lon="3.42749">
        <ele>1078</ele>
        <time>2016-06-07T08:15:32Z</time>
      </trkpt>
      <trkpt lat="44.59604" lon="3.42765">
        <ele>1076.2</ele>
        <time>2016-06-07T08:16:11Z</time>
      </trkpt>
      <trkpt lat="44.59621" lon="3.42774">
        <ele>1075.5</ele>
        <time>2016-06-07T08:16:31Z</time>
      </trkpt>
      <trkpt lat="44.5964" lon="3.4279">
        <ele>1075.9</ele>
        <time>2016-06-07T08:16:51Z</time>
      </trkpt>
      <trkpt lat="44.59641" lon="3.4279">
        <ele>1075.2</ele>
        <time>2016-06-07T08:16:52Z</time>
      </trkpt>
      <trkpt lat="44.59675" lon="3.42801">
        <ele>1076.9</ele>
        <time>2016-06-07T08:17:31Z</time>
      </trkpt>
      <trkpt lat="44.59691" lon="3.42792">
        <ele>1074.7</ele>
        <time>2016-06-07T08:17:51Z</time>
      </trkpt>
      <trkpt lat="44.59702" lon="3.42786">
        <ele>1075.9</ele>
        <time>2016-06-07T08:18:11Z</time>
      </trkpt>
      <trkpt lat="44.59702" lon="3.42786">
        <ele>1075.7</ele>
        <time>2016-06-07T08:18:12Z</time>
      </trkpt>
      <trkpt lat="44.59737" lon="3.42797">
        <ele>1073.8</ele>
        <time>2016-06-07T08:18:51Z</time>
      </trkpt>
      <trkpt lat="44.59744" lon="3.428">
        <ele>1073.7</ele>
        <time>2016-06-07T08:19:11Z</time>
      </trkpt>
      <trkpt lat="44.5977" lon="3.42808">
        <ele>1072.7</ele>
        <time>2016-06-07T08:19:31Z</time>
      </trkpt>
      <trkpt lat="44.59772" lon="3.42808">
        <ele>1073</ele>
        <time>2016-06-07T08:19:32Z</time>
      </trkpt>
      <trkpt lat="44.59805" lon="3.42807">
        <ele>1071.3</ele>
        <time>2016-06-07T08:20:11Z</time>
      </trkpt>
      <trkpt lat="44.59832" lon="3.42818">
        <ele>1070.5</ele>
        <time>2016-06-07T08:20:31Z</time>
      </trkpt>
      <trkpt lat="44.59861" lon="3.42827">
        <ele>1069.1</ele>
        <time>2016-06-07T08:20:51Z</time>
      </trkpt>
      <trkpt lat="44.59863" lon="3.42828">
        <ele>1069.2</ele>
        <time>2016-06-07T08:20:52Z</time>
      </trkpt>
      <trkpt lat="44.59914" lon="3.42839">
        <ele>1065.4</ele>
        <time>2016-06-07T08:21:31Z</time>
      </trkpt>
      <trkpt lat="44.5994" lon="3.42851">
        <ele>1063.3</ele>
        <time>2016-06-07T08:21:51Z</time>
      </trkpt>
      <trkpt lat="44.59962" lon="3.42869">
        <ele>1062.5</ele>
        <time>2016-06-07T08:22:11Z</time>
      </trkpt>
      <trkpt lat="44.59963" lon="3.42871">
        <ele>1062.3</ele>
        <time>2016-06-07T08:22:12Z</time>
      </trkpt>
      <trkpt lat="44.60004" lon="3.42898">
        <ele>1055.6</ele>
        <time>2016-06-07T08:22:51Z</time>
      </trkpt>
      <trkpt lat="44.60023" lon="3.42908">
        <ele>1052.7</ele>
        <time>2016-06-07T08:23:11Z</time>
      </trkpt>
      <trkpt lat="44.60052" lon="3.42919">
        <ele>1052.3</ele>
        <time>2016-06-07T08:23:31Z</time>
      </trkpt>
      <trkpt lat="44.60053" lon="3.4292">
        <ele>1052.8</ele>
        <time>2016-06-07T08:23:32Z</time>
      </trkpt>
      <trkpt lat="44.6009" lon="3.42953">
        <ele>1048.5</ele>
        <time>2016-06-07T08:24:11Z</time>
      </trkpt>
      <trkpt lat="44.60106" lon="3.42982">
        <ele>1045.7</ele>
        <time>2016-06-07T08:24:31Z</time>
      </trkpt>
      <trkpt lat="44.6012" lon="3.43012">
        <ele>1042.5</ele>
        <time>2016-06-07T08:24:51Z</time>
      </trkpt>
      <trkpt lat="44.60121" lon="3.43013">
        <ele>1042</ele>
        <time>2016-06-07T08:24:52Z</time>
      </trkpt>
      <trkpt lat="44.60142" lon="3.42994">
        <ele>1038.2</ele>
        <time>2016-06-07T08:25:31Z</time>
      </trkpt>
      <trkpt lat="44.6015" lon="3.42995">
        <ele>1037.7</ele>
        <time>2016-06-07T08:25:51Z</time>
      </trkpt>
      <trkpt lat="44.6015" lon="3.43001">
        <ele>1038.6</ele>
        <time>2016-06-07T08:26:11Z</time>
      </trkpt>
      <trkpt lat="44.6015" lon="3.43001">
        <ele>1039.1</ele>
        <time>2016-06-07T08:26:12Z</time>
      </trkpt>
      <trkpt lat="44.60153" lon="3.42972">
        <ele>1040.4</ele>
        <time>2016-06-07T08:26:51Z</time>
      </trkpt>
      <trkpt lat="44.60164" lon="3.42959">
        <ele>1041.2</ele>
        <time>2016-06-07T08:27:11Z</time>
      </trkpt>
      <trkpt lat="44.60174" lon="3.42957">
        <ele>1041</ele>
        <time>2016-06-07T08:27:31Z</time>
      </trkpt>
      <trkpt lat="44.60175" lon="3.42958">
        <ele>1041.6</ele>
        <time>2016-06-07T08:27:32Z</time>
      </trkpt>
      <trkpt lat="44.60216" lon="3.42959">
        <ele>1042</ele>
        <time>2016-06-07T08:28:11Z</time>
      </trkpt>
      <trkpt lat="44.60233" lon="3.42963">
        <ele>1041</ele>
        <time>2016-06-07T08:28:31Z</time>
      </trkpt>
      <trkpt lat="44.60249" lon="3.4297">
        <ele>1039.8</ele>
        <time>2016-06-07T08:28:51Z</time>
      </trkpt>
      <trkpt lat="44.60249" lon="3.42971">
        <ele>1040.2</ele>
        <time>2016-06-07T08:28:52Z</time>
      </trkpt>
      <trkpt lat="44.60252" lon="3.42968">
        <ele>1041.6</ele>
        <time>2016-06-07T08:29:31Z</time>
      </trkpt>
      <trkpt lat="44.60247" lon="3.4296">
        <ele>1040.1</ele>
        <time>2016-06-07T08:29:51Z</time>
      </trkpt>
      <trkpt lat="44.60246" lon="3.42965">
        <ele>1041.2</ele>
        <time>2016-06-07T08:30:11Z</time>
      </trkpt>
      <trkpt lat="44.60246" lon="3.42966">
        <ele>1041.7</ele>
        <time>2016-06-07T08:30:12Z</time>
      </trkpt>
      <trkpt lat="44.60249" lon="3.42973">
        <ele>1038.8</ele>
        <time>2016-06-07T08:30:51Z</time>
      </trkpt>
      <trkpt lat="44.60247" lon="3.42978">
        <ele>1039.9</ele>
        <time>2016-06-07T08:31:11Z</time>
      </trkpt>
      <trkpt lat="44.60249" lon="3.42978">
        <ele>1039.7</ele>
        <time>2016-06-07T08:31:30Z</time>
      </trkpt>
      <trkpt lat="44.60249" lon="3.42978">
        <ele>1039.9</ele>
        <time>2016-06-07T08:31:32Z</time>
      </trkpt>
      <trkpt lat="44.60252" lon="3.42974">
        <ele>1038.9</ele>
        <time>2016-06-07T08:32:10Z</time>
      </trkpt>
      <trkpt lat="44.60251" lon="3.42976">
        <ele>1039.1</ele>
        <time>2016-06-07T08:32:30Z</time>
      </trkpt>
      <trkpt lat="44.60252" lon="3.42975">
        <ele>1038.7</ele>
        <time>2016-06-07T08:32:50Z</time>
      </trkpt>
      <trkpt lat="44.60252" lon="3.42974">
        <ele>1038.9</ele>
        <time>2016-06-07T08:32:51Z</time>
      </trkpt>
      <trkpt lat="44.60248" lon="3.42982">
        <ele>1038.1</ele>
        <time>2016-06-07T08:33:30Z</time>
      </trkpt>
      <trkpt lat="44.60253" lon="3.42974">
        <ele>1037.6</ele>
        <time>2016-06-07T08:33:50Z</time>
      </trkpt>
      <trkpt lat="44.60253" lon="3.42973">
        <ele>1038</ele>
        <time>2016-06-07T08:34:10Z</time>
      </trkpt>
      <trkpt lat="44.60253" lon="3.42975">
        <ele>1038.2</ele>
        <time>2016-06-07T08:34:11Z</time>
      </trkpt>
      <trkpt lat="44.60254" lon="3.4297">
        <ele>1037.9</ele>
        <time>2016-06-07T08:34:50Z</time>
      </trkpt>
      <trkpt lat="44.60256" lon="3.42971">
        <ele>1038.8</ele>
        <time>2016-06-07T08:35:10Z</time>
      </trkpt>
      <trkpt lat="44.60256" lon="3.42964">
        <ele>1038.8</ele>
        <time>2016-06-07T08:35:30Z</time>
      </trkpt>
      <trkpt lat="44.60256" lon="3.42964">
        <ele>1038.6</ele>
        <time>2016-06-07T08:35:31Z</time>
      </trkpt>
      <trkpt lat="44.60247" lon="3.42984">
        <ele>1038</ele>
        <time>2016-06-07T08:36:10Z</time>
      </trkpt>
      <trkpt lat="44.6025" lon="3.42983">
        <ele>1038.8</ele>
        <time>2016-06-07T08:36:30Z</time>
      </trkpt>
      <trkpt lat="44.60252" lon="3.42985">
        <ele>1038.9</ele>
        <time>2016-06-07T08:36:50Z</time>
      </trkpt>
      <trkpt lat="44.60252" lon="3.42985">
        <ele>1039.2</ele>
        <time>2016-06-07T08:36:51Z</time>
      </trkpt>
      <trkpt lat="44.6026" lon="3.42974">
        <ele>1038.8</ele>
        <time>2016-06-07T08:37:30Z</time>
      </trkpt>
      <trkpt lat="44.60263" lon="3.42978">
        <ele>1038.2</ele>
        <time>2016-06-07T08:37:50Z</time>
      </trkpt>
      <trkpt lat="44.60261" lon="3.4298">
        <ele>1038.3</ele>
        <time>2016-06-07T08:38:10Z</time>
      </trkpt>
      <trkpt lat="44.60261" lon="3.4298">
        <ele>1038.3</ele>
        <time>2016-06-07T08:38:11Z</time>
      </trkpt>
      <trkpt lat="44.60266" lon="3.42982">
        <ele>1039.5</ele>
        <time>2016-06-07T08:38:50Z</time>
      </trkpt>
      <trkpt lat="44.60268" lon="3.42985">
        <ele>1038.5</ele>
        <time>2016-06-07T08:39:10Z</time>
      </trkpt>
      <trkpt lat="44.6027" lon="3.4298">
        <ele>1038.4</ele>
        <time>2016-06-07T08:39:30Z</time>
      </trkpt>
      <trkpt lat="44.6027" lon="3.4298">
        <ele>1038.5</ele>
        <time>2016-06-07T08:39:31Z</time>
      </trkpt>
      <trkpt lat="44.60268" lon="3.42983">
        <ele>1038.8</ele>
        <time>2016-06-07T08:40:10Z</time>
      </trkpt>
      <trkpt lat="44.60264" lon="3.42975">
        <ele>1040</ele>
        <time>2016-06-07T08:40:30Z</time>
      </trkpt>
      <trkpt lat="44.60264" lon="3.42974">
        <ele>1039.2</ele>
        <time>2016-06-07T08:40:50Z</time>
      </trkpt>
      <trkpt lat="44.60264" lon="3.42974">
        <ele>1039.7</ele>
        <time>2016-06-07T08:40:51Z</time>
      </trkpt>
      <trkpt lat="44.60268" lon="3.42977">
        <ele>1039</ele>
        <time>2016-06-07T08:41:30Z</time>
      </trkpt>
      <trkpt lat="44.60269" lon="3.42979">
        <ele>1040.2</ele>
        <time>2016-06-07T08:41:50Z</time>
      </trkpt>
      <trkpt lat="44.60269" lon="3.42978">
        <ele>1040.2</ele>
        <time>2016-06-07T08:42:10Z</time>
      </trkpt>
      <trkpt lat="44.6027" lon="3.42978">
        <ele>1040.2</ele>
        <time>2016-06-07T08:42:11Z</time>
      </trkpt>
      <trkpt lat="44.60267" lon="3.42973">
        <ele>1039.5</ele>
        <time>2016-06-07T08:42:50Z</time>
      </trkpt>
      <trkpt lat="44.60267" lon="3.42973">
        <ele>1040.6</ele>
        <time>2016-06-07T08:43:10Z</time>
      </trkpt>
      <trkpt lat="44.60265" lon="3.42972">
        <ele>1039.7</ele>
        <time>2016-06-07T08:43:30Z</time>
      </trkpt>
      <trkpt lat="44.60265" lon="3.42972">
        <ele>1039.6</ele>
        <time>2016-06-07T08:43:31Z</time>
      </trkpt>
      <trkpt lat="44.60267" lon="3.42977">
        <ele>1040.2</ele>
        <time>2016-06-07T08:44:10Z</time>
      </trkpt>
      <trkpt lat="44.60265" lon="3.42977">
        <ele>1039.4</ele>
        <time>2016-06-07T08:44:30Z</time>
      </trkpt>
      <trkpt lat="44.60266" lon="3.42978">
        <ele>1039.7</ele>
        <time>2016-06-07T08:44:50Z</time>
      </trkpt>
      <trkpt lat="44.60266" lon="3.42978">
        <ele>1040</ele>
        <time>2016-06-07T08:44:51Z</time>
      </trkpt>
      <trkpt lat="44.60267" lon="3.42984">
        <ele>1040</ele>
        <time>2016-06-07T08:45:30Z</time>
      </trkpt>
      <trkpt lat="44.60277" lon="3.42986">
        <ele>1039.2</ele>
        <time>2016-06-07T08:45:50Z</time>
      </trkpt>
      <trkpt lat="44.6028" lon="3.42978">
        <ele>1040.2</ele>
        <time>2016-06-07T08:46:10Z</time>
      </trkpt>
      <trkpt lat="44.60281" lon="3.42977">
        <ele>1040.3</ele>
        <time>2016-06-07T08:46:11Z</time>
      </trkpt>
      <trkpt lat="44.60287" lon="3.42974">
        <ele>1042.7</ele>
        <time>2016-06-07T08:46:50Z</time>
      </trkpt>
      <trkpt lat="44.60295" lon="3.42975">
        <ele>1044.9</ele>
        <time>2016-06-07T08:47:10Z</time>
      </trkpt>
      <trkpt lat="44.60307" lon="3.42978">
        <ele>1045</ele>
        <time>2016-06-07T08:47:30Z</time>
      </trkpt>
      <trkpt lat="44.60308" lon="3.42977">
        <ele>1045.3</ele>
        <time>2016-06-07T08:47:31Z</time>
      </trkpt>
      <trkpt lat="44.60326" lon="3.4299">
        <ele>1051.2</ele>
        <time>2016-06-07T08:48:10Z</time>
      </trkpt>
      <trkpt lat="44.60337" lon="3.43001">
        <ele>1053</ele>
        <time>2016-06-07T08:48:30Z</time>
      </trkpt>
      <trkpt lat="44.60351" lon="3.43009">
        <ele>1055.7</ele>
        <time>2016-06-07T08:48:50Z</time>
      </trkpt>
      <trkpt lat="44.60352" lon="3.4301">
        <ele>1056.4</ele>
        <time>2016-06-07T08:48:51Z</time>
      </trkpt>
      <trkpt lat="44.60381" lon="3.43022">
        <ele>1060.5</ele>
        <time>2016-06-07T08:49:30Z</time>
      </trkpt>
      <trkpt lat="44.60391" lon="3.43018">
        <ele>1060.4</ele>
        <time>2016-06-07T08:49:50Z</time>
      </trkpt>
      <trkpt lat="44.60394" lon="3.43014">
        <ele>1061.1</ele>
        <time>2016-06-07T08:50:10Z</time>
      </trkpt>
      <trkpt lat="44.60395" lon="3.43014">
        <ele>1061.1</ele>
        <time>2016-06-07T08:50:11Z</time>
      </trkpt>
      <trkpt lat="44.60425" lon="3.43007">
        <ele>1063.2</ele>
        <time>2016-06-07T08:50:50Z</time>
      </trkpt>
      <trkpt lat="44.60446" lon="3.43004">
        <ele>1065</ele>
        <time>2016-06-07T08:51:10Z</time>
      </trkpt>
      <trkpt lat="44.60463" lon="3.42996">
        <ele>1065.5</ele>
        <time>2016-06-07T08:51:30Z</time>
      </trkpt>
      <trkpt lat="44.60464" lon="3.42996">
        <ele>1065.6</ele>
        <time>2016-06-07T08:51:31Z</time>
      </trkpt>
      <trkpt lat="44.60496" lon="3.42971">
        <ele>1068.3</ele>
        <time>2016-06-07T08:52:10Z</time>
      </trkpt>
      <trkpt lat="44.60514" lon="3.42954">
        <ele>1069.2</ele>
        <time>2016-06-07T08:52:30Z</time>
      </trkpt>
      <trkpt lat="44.60521" lon="3.42931">
        <ele>1071.9</ele>
        <time>2016-06-07T08:52:50Z</time>
      </trkpt>
      <trkpt lat="44.60522" lon="3.4293">
        <ele>1071.9</ele>
        <time>2016-06-07T08:52:51Z</time>
      </trkpt>
      <trkpt lat="44.60549" lon="3.42885">
        <ele>1075.5</ele>
        <time>2016-06-07T08:53:30Z</time>
      </trkpt>
      <trkpt lat="44.60567" lon="3.42868">
        <ele>1076</ele>
        <time>2016-06-07T08:53:50Z</time>
      </trkpt>
      <trkpt lat="44.60583" lon="3.42846">
        <ele>1078</ele>
        <time>2016-06-07T08:54:10Z</time>
      </trkpt>
      <trkpt lat="44.60584" lon="3.42845">
        <ele>1078.3</ele>
        <time>2016-06-07T08:54:11Z</time>
      </trkpt>
      <trkpt lat="44.60608" lon="3.42804">
        <ele>1082.6</ele>
        <time>2016-06-07T08:54:50Z</time>
      </trkpt>
      <trkpt lat="44.60621" lon="3.42788">
        <ele>1084.5</ele>
        <time>2016-06-07T08:55:10Z</time>
      </trkpt>
      <trkpt lat="44.60637" lon="3.42777">
        <ele>1085.6</ele>
        <time>2016-06-07T08:55:30Z</time>
      </trkpt>
      <trkpt lat="44.60637" lon="3.42777">
        <ele>1085.4</ele>
        <time>2016-06-07T08:55:31Z</time>
      </trkpt>
      <trkpt lat="44.60683" lon="3.42761">
        <ele>1088.8</ele>
        <time>2016-06-07T08:56:10Z</time>
      </trkpt>
      <trkpt lat="44.60702" lon="3.42755">
        <ele>1090.6</ele>
        <time>2016-06-07T08:56:30Z</time>
      </trkpt>
      <trkpt lat="44.60725" lon="3.42738">
        <ele>1091.7</ele>
        <time>2016-06-07T08:56:50Z</time>
      </trkpt>
      <trkpt lat="44.60726" lon="3.42737">
        <ele>1092.3</ele>
        <time>2016-06-07T08:56:51Z</time>
      </trkpt>
      <trkpt lat="44.60755" lon="3.42718">
        <ele>1094.7</ele>
        <time>2016-06-07T08:57:30Z</time>
      </trkpt>
      <trkpt lat="44.60771" lon="3.42712">
        <ele>1097.3</ele>
        <time>2016-06-07T08:57:50Z</time>
      </trkpt>
      <trkpt lat="44.60789" lon="3.42709">
        <ele>1098.8</ele>
        <time>2016-06-07T08:58:10Z</time>
      </trkpt>
      <trkpt lat="44.6079" lon="3.42709">
        <ele>1098.8</ele>
        <time>2016-06-07T08:58:11Z</time>
      </trkpt>
      <trkpt lat="44.60833" lon="3.42701">
        <ele>1103.5</ele>
        <time>2016-06-07T08:58:50Z</time>
      </trkpt>
      <trkpt lat="44.60853" lon="3.42693">
        <ele>1105.1</ele>
        <time>2016-06-07T08:59:10Z</time>
      </trkpt>
      <trkpt lat="44.60874" lon="3.42677">
        <ele>1106.7</ele>
        <time>2016-06-07T08:59:29Z</time>
      </trkpt>
      <trkpt lat="44.60874" lon="3.42677">
        <ele>1107</ele>
        <time>2016-06-07T08:59:31Z</time>
      </trkpt>
      <trkpt lat="44.60907" lon="3.42647">
        <ele>1110.4</ele>
        <time>2016-06-07T09:00:09Z</time>
      </trkpt>
      <trkpt lat="44.60924" lon="3.42625">
        <ele>1112.3</ele>
        <time>2016-06-07T09:00:29Z</time>
      </trkpt>
      <trkpt lat="44.60939" lon="3.42607">
        <ele>1114.3</ele>
        <time>2016-06-07T09:00:49Z</time>
      </trkpt>
      <trkpt lat="44.6094" lon="3.42605">
        <ele>1114.2</ele>
        <time>2016-06-07T09:00:50Z</time>
      </trkpt>
      <trkpt lat="44.60973" lon="3.42578">
        <ele>1118.5</ele>
        <time>2016-06-07T09:01:29Z</time>
      </trkpt>
      <trkpt lat="44.6099" lon="3.42563">
        <ele>1120</ele>
        <time>2016-06-07T09:01:49Z</time>
      </trkpt>
      <trkpt lat="44.61009" lon="3.42553">
        <ele>1121</ele>
        <time>2016-06-07T09:02:09Z</time>
      </trkpt>
      <trkpt lat="44.6101" lon="3.42553">
        <ele>1120.9</ele>
        <time>2016-06-07T09:02:10Z</time>
      </trkpt>
      <trkpt lat="44.61045" lon="3.42543">
        <ele>1125.4</ele>
        <time>2016-06-07T09:02:49Z</time>
      </trkpt>
      <trkpt lat="44.61067" lon="3.42536">
        <ele>1126.5</ele>
        <time>2016-06-07T09:03:09Z</time>
      </trkpt>
      <trkpt lat="44.61087" lon="3.42527">
        <ele>1130.4</ele>
        <time>2016-06-07T09:03:29Z</time>
      </trkpt>
      <trkpt lat="44.61088" lon="3.42527">
        <ele>1129.9</ele>
        <time>2016-06-07T09:03:30Z</time>
      </trkpt>
      <trkpt lat="44.61113" lon="3.42481">
        <ele>1133.2</ele>
        <time>2016-06-07T09:04:09Z</time>
      </trkpt>
      <trkpt lat="44.61119" lon="3.42451">
        <ele>1135</ele>
        <time>2016-06-07T09:04:29Z</time>
      </trkpt>
      <trkpt lat="44.61127" lon="3.42422">
        <ele>1136.5</ele>
        <time>2016-06-07T09:04:49Z</time>
      </trkpt>
      <trkpt lat="44.61128" lon="3.4242">
        <ele>1136.9</ele>
        <time>2016-06-07T09:04:50Z</time>
      </trkpt>
      <trkpt lat="44.61147" lon="3.42374">
        <ele>1138.5</ele>
        <time>2016-06-07T09:05:29Z</time>
      </trkpt>
      <trkpt lat="44.61147" lon="3.42362">
        <ele>1139.7</ele>
        <time>2016-06-07T09:05:49Z</time>
      </trkpt>
      <trkpt lat="44.6116" lon="3.42343">
        <ele>1140.3</ele>
        <time>2016-06-07T09:06:09Z</time>
      </trkpt>
      <trkpt lat="44.6116" lon="3.42342">
        <ele>1140.4</ele>
        <time>2016-06-07T09:06:10Z</time>
      </trkpt>
      <trkpt lat="44.6119" lon="3.42295">
        <ele>1141.1</ele>
        <time>2016-06-07T09:06:49Z</time>
      </trkpt>
      <trkpt lat="44.61203" lon="3.4227">
        <ele>1143.5</ele>
        <time>2016-06-07T09:07:09Z</time>
      </trkpt>
      <trkpt lat="44.61211" lon="3.42244">
        <ele>1144.1</ele>
        <time>2016-06-07T09:07:29Z</time>
      </trkpt>
      <trkpt lat="44.61211" lon="3.42243">
        <ele>1144.1</ele>
        <time>2016-06-07T09:07:30Z</time>
      </trkpt>
      <trkpt lat="44.61178" lon="3.42227">
        <ele>1143</ele>
        <time>2016-06-07T09:08:09Z</time>
      </trkpt>
      <trkpt lat="44.61164" lon="3.42223">
        <ele>1141.9</ele>
        <time>2016-06-07T09:08:29Z</time>
      </trkpt>
      <trkpt lat="44.61138" lon="3.42216">
        <ele>1141.2</ele>
        <time>2016-06-07T09:08:49Z</time>
      </trkpt>
      <trkpt lat="44.61137" lon="3.42215">
        <ele>1141</ele>
        <time>2016-06-07T09:08:50Z</time>
      </trkpt>
      <trkpt lat="44.61086" lon="3.42224">
        <ele>1140</ele>
        <time>2016-06-07T09:09:29Z</time>
      </trkpt>
      <trkpt lat="44.61063" lon="3.42226">
        <ele>1139.2</ele>
        <time>2016-06-07T09:09:49Z</time>
      </trkpt>
      <trkpt lat="44.61045" lon="3.42234">
        <ele>1139.6</ele>
        <time>2016-06-07T09:10:09Z</time>
      </trkpt>
      <trkpt lat="44.61045" lon="3.42234">
        <ele>1139.4</ele>
        <time>2016-06-07T09:10:10Z</time>
      </trkpt>
      <trkpt lat="44.61008" lon="3.42247">
        <ele>1138.5</ele>
        <time>2016-06-07T09:10:49Z</time>
      </trkpt>
      <trkpt lat="44.60987" lon="3.42256">
        <ele>1138</ele>
        <time>2016-06-07T09:11:09Z</time>
      </trkpt>
      <trkpt lat="44.60964" lon="3.42266">
        <ele>1136.4</ele>
        <time>2016-06-07T09:11:29Z</time>
      </trkpt>
      <trkpt lat="44.60963" lon="3.42266">
        <ele>1136.4</ele>
        <time>2016-06-07T09:11:30Z</time>
      </trkpt>
      <trkpt lat="44.60916" lon="3.4227">
        <ele>1137</ele>
        <time>2016-06-07T09:12:09Z</time>
      </trkpt>
      <trkpt lat="44.60893" lon="3.4227">
        <ele>1138.5</ele>
        <time>2016-06-07T09:12:29Z</time>
      </trkpt>
      <trkpt lat="44.60871" lon="3.42266">
        <ele>1137.1</ele>
        <time>2016-06-07T09:12:49Z</time>
      </trkpt>
      <trkpt lat="44.6087" lon="3.42265">
        <ele>1136.9</ele>
        <time>2016-06-07T09:12:50Z</time>
      </trkpt>
      <trkpt lat="44.60825" lon="3.42241">
        <ele>1134.7</ele>
        <time>2016-06-07T09:13:29Z</time>
      </trkpt>
      <trkpt lat="44.60801" lon="3.42234">
        <ele>1134.6</ele>
        <time>2016-06-07T09:13:49Z</time>
      </trkpt>
      <trkpt lat="44.60778" lon="3.42227">
        <ele>1134.9</ele>
        <time>2016-06-07T09:14:09Z</time>
      </trkpt>
      <trkpt lat="44.60777" lon="3.42226">
        <ele>1135</ele>
        <time>2016-06-07T09:14:10Z</time>
      </trkpt>
      <trkpt lat="44.60731" lon="3.42209">
        <ele>1134.3</ele>
        <time>2016-06-07T09:14:49Z</time>
      </trkpt>
      <trkpt lat="44.60708" lon="3.422">
        <ele>1135</ele>
        <time>2016-06-07T09:15:09Z</time>
      </trkpt>
      <trkpt lat="44.60681" lon="3.42189">
        <ele>1135.5</ele>
        <time>2016-06-07T09:15:29Z</time>
      </trkpt>
      <trkpt lat="44.60681" lon="3.42188">
        <ele>1135.4</ele>
        <time>2016-06-07T09:15:30Z</time>
      </trkpt>
      <trkpt lat="44.60641" lon="3.42158">
        <ele>1134.3</ele>
        <time>2016-06-07T09:16:09Z</time>
      </trkpt>
      <trkpt lat="44.60616" lon="3.42156">
        <ele>1134.6</ele>
        <time>2016-06-07T09:16:29Z</time>
      </trkpt>
      <trkpt lat="44.60591" lon="3.42156">
        <ele>1133.9</ele>
        <time>2016-06-07T09:16:49Z</time>
      </trkpt>
      <trkpt lat="44.6059" lon="3.42156">
        <ele>1133.6</ele>
        <time>2016-06-07T09:16:50Z</time>
      </trkpt>
      <trkpt lat="44.60552" lon="3.42139">
        <ele>1133.9</ele>
        <time>2016-06-07T09:17:29Z</time>
      </trkpt>
      <trkpt lat="44.60525" lon="3.42129">
        <ele>1133</ele>
        <time>2016-06-07T09:17:49Z</time>
      </trkpt>
      <trkpt lat="44.60504" lon="3.42134">
        <ele>1133.8</ele>
        <time>2016-06-07T09:18:09Z</time>
      </trkpt>
      <trkpt lat="44.60502" lon="3.42133">
        <ele>1133.8</ele>
        <time>2016-06-07T09:18:10Z</time>
      </trkpt>
      <trkpt lat="44.6048" lon="3.42132">
        <ele>1134.5</ele>
        <time>2016-06-07T09:18:49Z</time>
      </trkpt>
      <trkpt lat="44.60479" lon="3.42132">
        <ele>1134.3</ele>
        <time>2016-06-07T09:19:09Z</time>
      </trkpt>
      <trkpt lat="44.60478" lon="3.42134">
        <ele>1132.9</ele>
        <time>2016-06-07T09:19:29Z</time>
      </trkpt>
      <trkpt lat="44.60478" lon="3.42134">
        <ele>1132.9</ele>
        <time>2016-06-07T09:19:30Z</time>
      </trkpt>
      <trkpt lat="44.6048" lon="3.42131">
        <ele>1131</ele>
        <time>2016-06-07T09:20:09Z</time>
      </trkpt>
      <trkpt lat="44.6048" lon="3.42131">
        <ele>1130.8</ele>
        <time>2016-06-07T09:20:29Z</time>
      </trkpt>
      <trkpt lat="44.60491" lon="3.4213">
        <ele>1130.5</ele>
        <time>2016-06-07T09:20:49Z</time>
      </trkpt>
      <trkpt lat="44.6049" lon="3.4213">
        <ele>1130.1</ele>
        <time>2016-06-07T09:20:50Z</time>
      </trkpt>
      <trkpt lat="44.60483" lon="3.42134">
        <ele>1131.6</ele>
        <time>2016-06-07T09:21:29Z</time>
      </trkpt>
      <trkpt lat="44.60487" lon="3.42126">
        <ele>1131.9</ele>
        <time>2016-06-07T09:21:49Z</time>
      </trkpt>
      <trkpt lat="44.60471" lon="3.42099">
        <ele>1131.3</ele>
        <time>2016-06-07T09:22:09Z</time>
      </trkpt>
      <trkpt lat="44.60469" lon="3.42098">
        <ele>1131.6</ele>
        <time>2016-06-07T09:22:10Z</time>
      </trkpt>
      <trkpt lat="44.60421" lon="3.42063">
        <ele>1127.6</ele>
        <time>2016-06-07T09:22:49Z</time>
      </trkpt>
      <trkpt lat="44.60393" lon="3.4205">
        <ele>1127.7</ele>
        <time>2016-06-07T09:23:09Z</time>
      </trkpt>
      <trkpt lat="44.60372" lon="3.4204">
        <ele>1126.3</ele>
        <time>2016-06-07T09:23:29Z</time>
      </trkpt>
      <trkpt lat="44.6037" lon="3.4204">
        <ele>1126.4</ele>
        <time>2016-06-07T09:23:30Z</time>
      </trkpt>
      <trkpt lat="44.60325" lon="3.42012">
        <ele>1123.7</ele>
        <time>2016-06-07T09:24:09Z</time>
      </trkpt>
      <trkpt lat="44.60301" lon="3.41995">
        <ele>1122.1</ele>
        <time>2016-06-07T09:24:29Z</time>
      </trkpt>
      <trkpt lat="44.60278" lon="3.41984">
        <ele>1121.1</ele>
        <time>2016-06-07T09:24:49Z</time>
      </trkpt>
      <trkpt lat="44.60276" lon="3.41983">
        <ele>1121.1</ele>
        <time>2016-06-07T09:24:50Z</time>
      </trkpt>
      <trkpt lat="44.6023" lon="3.41966">
        <ele>1118.7</ele>
        <time>2016-06-07T09:25:29Z</time>
      </trkpt>
      <trkpt lat="44.60208" lon="3.41954">
        <ele>1118.1</ele>
        <time>2016-06-07T09:25:49Z</time>
      </trkpt>
      <trkpt lat="44.60197" lon="3.41948">
        <ele>1116.2</ele>
        <time>2016-06-07T09:26:09Z</time>
      </trkpt>
      <trkpt lat="44.60197" lon="3.41947">
        <ele>1116</ele>
        <time>2016-06-07T09:26:10Z</time>
      </trkpt>
      <trkpt lat="44.60171" lon="3.41909">
        <ele>1113.3</ele>
        <time>2016-06-07T09:26:49Z</time>
      </trkpt>
      <trkpt lat="44.60148" lon="3.41895">
        <ele>1111.6</ele>
        <time>2016-06-07T09:27:09Z</time>
      </trkpt>
      <trkpt lat="44.60124" lon="3.4188">
        <ele>1108.8</ele>
        <time>2016-06-07T09:27:29Z</time>
      </trkpt>
      <trkpt lat="44.60123" lon="3.41879">
        <ele>1108.4</ele>
        <time>2016-06-07T09:27:29Z</time>
      </trkpt>
      <trkpt lat="44.6007" lon="3.41868">
        <ele>1107</ele>
        <time>2016-06-07T09:28:09Z</time>
      </trkpt>
      <trkpt lat="44.60046" lon="3.41867">
        <ele>1106.9</ele>
        <time>2016-06-07T09:28:29Z</time>
      </trkpt>
      <trkpt lat="44.60022" lon="3.41863">
        <ele>1105.2</ele>
        <time>2016-06-07T09:28:49Z</time>
      </trkpt>
      <trkpt lat="44.60021" lon="3.41862">
        <ele>1104.7</ele>
        <time>2016-06-07T09:28:50Z</time>
      </trkpt>
      <trkpt lat="44.59971" lon="3.41859">
        <ele>1100</ele>
        <time>2016-06-07T09:29:29Z</time>
      </trkpt>
      <trkpt lat="44.59945" lon="3.41867">
        <ele>1099.2</ele>
        <time>2016-06-07T09:29:49Z</time>
      </trkpt>
      <trkpt lat="44.59924" lon="3.41869">
        <ele>1096.8</ele>
        <time>2016-06-07T09:30:09Z</time>
      </trkpt>
      <trkpt lat="44.59924" lon="3.41869">
        <ele>1097.1</ele>
        <time>2016-06-07T09:30:10Z</time>
      </trkpt>
      <trkpt lat="44.59922" lon="3.41846">
        <ele>1091</ele>
        <time>2016-06-07T09:30:49Z</time>
      </trkpt>
      <trkpt lat="44.59928" lon="3.41828">
        <ele>1088.5</ele>
        <time>2016-06-07T09:31:09Z</time>
      </trkpt>
      <trkpt lat="44.59942" lon="3.418">
        <ele>1086.2</ele>
        <time>2016-06-07T09:31:29Z</time>
      </trkpt>
      <trkpt lat="44.59943" lon="3.41799">
        <ele>1085.4</ele>
        <time>2016-06-07T09:31:30Z</time>
      </trkpt>
      <trkpt lat="44.59964" lon="3.41741">
        <ele>1079.9</ele>
        <time>2016-06-07T09:32:09Z</time>
      </trkpt>
      <trkpt lat="44.59964" lon="3.41711">
        <ele>1077.5</ele>
        <time>2016-06-07T09:32:29Z</time>
      </trkpt>
      <trkpt lat="44.59948" lon="3.41704">
        <ele>1073.5</ele>
        <time>2016-06-07T09:32:49Z</time>
      </trkpt>
      <trkpt lat="44.59946" lon="3.41705">
        <ele>1073.4</ele>
        <time>2016-06-07T09:32:50Z</time>
      </trkpt>
      <trkpt lat="44.59925" lon="3.41709">
        <ele>1070.2</ele>
        <time>2016-06-07T09:33:29Z</time>
      </trkpt>
      <trkpt lat="44.59929" lon="3.41686">
        <ele>1069.6</ele>
        <time>2016-06-07T09:33:49Z</time>
      </trkpt>
      <trkpt lat="44.59927" lon="3.41657">
        <ele>1066.4</ele>
        <time>2016-06-07T09:34:09Z</time>
      </trkpt>
      <trkpt lat="44.59926" lon="3.41654">
        <ele>1066.2</ele>
        <time>2016-06-07T09:34:10Z</time>
      </trkpt>
      <trkpt lat="44.59925" lon="3.41622">
        <ele>1063.6</ele>
        <time>2016-06-07T09:34:49Z</time>
      </trkpt>
      <trkpt lat="44.59934" lon="3.4161">
        <ele>1062.2</ele>
        <time>2016-06-07T09:35:09Z</time>
      </trkpt>
      <trkpt lat="44.59952" lon="3.41608">
        <ele>1060.9</ele>
        <time>2016-06-07T09:35:29Z</time>
      </trkpt>
      <trkpt lat="44.59953" lon="3.41608">
        <ele>1061</ele>
        <time>2016-06-07T09:35:30Z</time>
      </trkpt>
      <trkpt lat="44.59991" lon="3.41586">
        <ele>1057.6</ele>
        <time>2016-06-07T09:36:09Z</time>
      </trkpt>
      <trkpt lat="44.59986" lon="3.41564">
        <ele>1056.2</ele>
        <time>2016-06-07T09:36:29Z</time>
      </trkpt>
      <trkpt lat="44.59983" lon="3.41539">
        <ele>1054.9</ele>
        <time>2016-06-07T09:36:49Z</time>
      </trkpt>
      <trkpt lat="44.59982" lon="3.41537">
        <ele>1054.9</ele>
        <time>2016-06-07T09:36:50Z</time>
      </trkpt>
      <trkpt lat="44.59994" lon="3.41486">
        <ele>1051</ele>
        <time>2016-06-07T09:37:29Z</time>
      </trkpt>
      <trkpt lat="44.60005" lon="3.4146">
        <ele>1050.8</ele>
        <time>2016-06-07T09:37:49Z</time>
      </trkpt>
      <trkpt lat="44.60014" lon="3.41436">
        <ele>1049.8</ele>
        <time>2016-06-07T09:38:09Z</time>
      </trkpt>
      <trkpt lat="44.60014" lon="3.41435">
        <ele>1049.8</ele>
        <time>2016-06-07T09:38:10Z</time>
      </trkpt>
      <trkpt lat="44.60031" lon="3.41416">
        <ele>1048.4</ele>
        <time>2016-06-07T09:38:49Z</time>
      </trkpt>
      <trkpt lat="44.60023" lon="3.41399">
        <ele>1047.8</ele>
        <time>2016-06-07T09:39:09Z</time>
      </trkpt>
      <trkpt lat="44.6001" lon="3.41382">
        <ele>1048.9</ele>
        <time>2016-06-07T09:39:29Z</time>
      </trkpt>
      <trkpt lat="44.60009" lon="3.41382">
        <ele>1048.9</ele>
        <time>2016-06-07T09:39:30Z</time>
      </trkpt>
      <trkpt lat="44.59967" lon="3.41389">
        <ele>1048.3</ele>
        <time>2016-06-07T09:40:09Z</time>
      </trkpt>
      <trkpt lat="44.5994" lon="3.41401">
        <ele>1048.1</ele>
        <time>2016-06-07T09:40:29Z</time>
      </trkpt>
      <trkpt lat="44.59914" lon="3.41406">
        <ele>1047.6</ele>
        <time>2016-06-07T09:40:49Z</time>
      </trkpt>
      <trkpt lat="44.59913" lon="3.41406">
        <ele>1047.4</ele>
        <time>2016-06-07T09:40:50Z</time>
      </trkpt>
      <trkpt lat="44.5987" lon="3.41409">
        <ele>1050.4</ele>
        <time>2016-06-07T09:41:29Z</time>
      </trkpt>
      <trkpt lat="44.59851" lon="3.41409">
        <ele>1050.3</ele>
        <time>2016-06-07T09:41:49Z</time>
      </trkpt>
      <trkpt lat="44.59843" lon="3.41405">
        <ele>1051.4</ele>
        <time>2016-06-07T09:42:09Z</time>
      </trkpt>
      <trkpt lat="44.59841" lon="3.41406">
        <ele>1051.7</ele>
        <time>2016-06-07T09:42:10Z</time>
      </trkpt>
      <trkpt lat="44.598" lon="3.4142">
        <ele>1056.3</ele>
        <time>2016-06-07T09:42:49Z</time>
      </trkpt>
      <trkpt lat="44.59777" lon="3.41431">
        <ele>1058.2</ele>
        <time>2016-06-07T09:43:09Z</time>
      </trkpt>
      <trkpt lat="44.59759" lon="3.41445">
        <ele>1059.8</ele>
        <time>2016-06-07T09:43:29Z</time>
      </trkpt>
      <trkpt lat="44.59758" lon="3.41445">
        <ele>1060.2</ele>
        <time>2016-06-07T09:43:30Z</time>
      </trkpt>
      <trkpt lat="44.5972" lon="3.41468">
        <ele>1061.3</ele>
        <time>2016-06-07T09:44:09Z</time>
      </trkpt>
      <trkpt lat="44.59703" lon="3.41467">
        <ele>1063.1</ele>
        <time>2016-06-07T09:44:29Z</time>
      </trkpt>
      <trkpt lat="44.59686" lon="3.41459">
        <ele>1065</ele>
        <time>2016-06-07T09:44:49Z</time>
      </trkpt>
      <trkpt lat="44.59684" lon="3.41458">
        <ele>1065.1</ele>
        <time>2016-06-07T09:44:50Z</time>
      </trkpt>
      <trkpt lat="44.59638" lon="3.41448">
        <ele>1063.7</ele>
        <time>2016-06-07T09:45:29Z</time>
      </trkpt>
      <trkpt lat="44.59626" lon="3.41443">
        <ele>1062.6</ele>
        <time>2016-06-07T09:45:49Z</time>
      </trkpt>
      <trkpt lat="44.59606" lon="3.41438">
        <ele>1062.9</ele>
        <time>2016-06-07T09:46:09Z</time>
      </trkpt>
      <trkpt lat="44.59605" lon="3.41438">
        <ele>1062.6</ele>
        <time>2016-06-07T09:46:10Z</time>
      </trkpt>
      <trkpt lat="44.59567" lon="3.41426">
        <ele>1060.8</ele>
        <time>2016-06-07T09:46:49Z</time>
      </trkpt>
      <trkpt lat="44.59548" lon="3.41419">
        <ele>1061.5</ele>
        <time>2016-06-07T09:47:09Z</time>
      </trkpt>
      <trkpt lat="44.59531" lon="3.41411">
        <ele>1059.1</ele>
        <time>2016-06-07T09:47:29Z</time>
      </trkpt>
      <trkpt lat="44.5953" lon="3.41411">
        <ele>1059.4</ele>
        <time>2016-06-07T09:47:30Z</time>
      </trkpt>
      <trkpt lat="44.59494" lon="3.41393">
        <ele>1058.4</ele>
        <time>2016-06-07T09:48:09Z</time>
      </trkpt>
      <trkpt lat="44.59473" lon="3.41381">
        <ele>1058.5</ele>
        <time>2016-06-07T09:48:29Z</time>
      </trkpt>
      <trkpt lat="44.59452" lon="3.41367">
        <ele>1056.6</ele>
        <time>2016-06-07T09:48:49Z</time>
      </trkpt>
      <trkpt lat="44.59451" lon="3.41367">
        <ele>1056.9</ele>
        <time>2016-06-07T09:48:50Z</time>
      </trkpt>
      <trkpt lat="44.59411" lon="3.4134">
        <ele>1056.2</ele>
        <time>2016-06-07T09:49:29Z</time>
      </trkpt>
      <trkpt lat="44.59392" lon="3.41323">
        <ele>1054.2</ele>
        <time>2016-06-07T09:49:49Z</time>
      </trkpt>
      <trkpt lat="44.59372" lon="3.41305">
        <ele>1054.3</ele>
        <time>2016-06-07T09:50:09Z</time>
      </trkpt>
      <trkpt lat="44.59371" lon="3.41304">
        <ele>1054.1</ele>
        <time>2016-06-07T09:50:10Z</time>
      </trkpt>
      <trkpt lat="44.59338" lon="3.41273">
        <ele>1050.6</ele>
        <time>2016-06-07T09:50:49Z</time>
      </trkpt>
      <trkpt lat="44.5932" lon="3.41258">
        <ele>1048.7</ele>
        <time>2016-06-07T09:51:09Z</time>
      </trkpt>
      <trkpt lat="44.59302" lon="3.41241">
        <ele>1049.1</ele>
        <time>2016-06-07T09:51:29Z</time>
      </trkpt>
      <trkpt lat="44.59302" lon="3.41241">
        <ele>1048.8</ele>
        <time>2016-06-07T09:51:30Z</time>
      </trkpt>
      <trkpt lat="44.59284" lon="3.41226">
        <ele>1045.6</ele>
        <time>2016-06-07T09:52:09Z</time>
      </trkpt>
      <trkpt lat="44.59283" lon="3.41228">
        <ele>1044.6</ele>
        <time>2016-06-07T09:52:29Z</time>
      </trkpt>
      <trkpt lat="44.59282" lon="3.41222">
        <ele>1045.7</ele>
        <time>2016-06-07T09:52:49Z</time>
      </trkpt>
      <trkpt lat="44.59282" lon="3.41222">
        <ele>1045.8</ele>
        <time>2016-06-07T09:52:50Z</time>
      </trkpt>
      <trkpt lat="44.59282" lon="3.4123">
        <ele>1045.2</ele>
        <time>2016-06-07T09:53:29Z</time>
      </trkpt>
      <trkpt lat="44.59283" lon="3.41231">
        <ele>1045.4</ele>
        <time>2016-06-07T09:53:49Z</time>
      </trkpt>
      <trkpt lat="44.59282" lon="3.41229">
        <ele>1046.1</ele>
        <time>2016-06-07T09:54:09Z</time>
      </trkpt>
      <trkpt lat="44.59282" lon="3.41229">
        <ele>1045.9</ele>
        <time>2016-06-07T09:54:10Z</time>
      </trkpt>
      <trkpt lat="44.59279" lon="3.41229">
        <ele>1044.8</ele>
        <time>2016-06-07T09:54:49Z</time>
      </trkpt>
      <trkpt lat="44.59269" lon="3.41209">
        <ele>1041.3</ele>
        <time>2016-06-07T09:55:09Z</time>
      </trkpt>
      <trkpt lat="44.59265" lon="3.41186">
        <ele>1038.5</ele>
        <time>2016-06-07T09:55:28Z</time>
      </trkpt>
      <trkpt lat="44.59265" lon="3.41185">
        <ele>1038.2</ele>
        <time>2016-06-07T09:55:30Z</time>
      </trkpt>
      <trkpt lat="44.59252" lon="3.41144">
        <ele>1030.2</ele>
        <time>2016-06-07T09:56:08Z</time>
      </trkpt>
      <trkpt lat="44.59243" lon="3.41123">
        <ele>1027.1</ele>
        <time>2016-06-07T09:56:28Z</time>
      </trkpt>
      <trkpt lat="44.59235" lon="3.41104">
        <ele>1024.4</ele>
        <time>2016-06-07T09:56:48Z</time>
      </trkpt>
      <trkpt lat="44.59235" lon="3.41103">
        <ele>1023.8</ele>
        <time>2016-06-07T09:56:49Z</time>
      </trkpt>
      <trkpt lat="44.59217" lon="3.41058">
        <ele>1021.1</ele>
        <time>2016-06-07T09:57:28Z</time>
      </trkpt>
      <trkpt lat="44.59203" lon="3.41032">
        <ele>1019.7</ele>
        <time>2016-06-07T09:57:48Z</time>
      </trkpt>
      <trkpt lat="44.59185" lon="3.41019">
        <ele>1019.4</ele>
        <time>2016-06-07T09:58:08Z</time>
      </trkpt>
      <trkpt lat="44.59183" lon="3.41019">
        <ele>1019.1</ele>
        <time>2016-06-07T09:58:09Z</time>
      </trkpt>
      <trkpt lat="44.59131" lon="3.41006">
        <ele>1019</ele>
        <time>2016-06-07T09:58:48Z</time>
      </trkpt>
      <trkpt lat="44.59108" lon="3.40998">
        <ele>1019.6</ele>
        <time>2016-06-07T09:59:08Z</time>
      </trkpt>
      <trkpt lat="44.59087" lon="3.40996">
        <ele>1019.3</ele>
        <time>2016-06-07T09:59:28Z</time>
      </trkpt>
      <trkpt lat="44.59086" lon="3.40995">
        <ele>1019.9</ele>
        <time>2016-06-07T09:59:29Z</time>
      </trkpt>
      <trkpt lat="44.5905" lon="3.40979">
        <ele>1021.9</ele>
        <time>2016-06-07T10:00:08Z</time>
      </trkpt>
      <trkpt lat="44.59031" lon="3.40972">
        <ele>1024</ele>
        <time>2016-06-07T10:00:28Z</time>
      </trkpt>
      <trkpt lat="44.59013" lon="3.40966">
        <ele>1025.4</ele>
        <time>2016-06-07T10:00:48Z</time>
      </trkpt>
      <trkpt lat="44.59013" lon="3.40966">
        <ele>1025.6</ele>
        <time>2016-06-07T10:00:49Z</time>
      </trkpt>
      <trkpt lat="44.58973" lon="3.40943">
        <ele>1028.8</ele>
        <time>2016-06-07T10:01:28Z</time>
      </trkpt>
      <trkpt lat="44.58953" lon="3.4093">
        <ele>1030.2</ele>
        <time>2016-06-07T10:01:48Z</time>
      </trkpt>
      <trkpt lat="44.58933" lon="3.40913">
        <ele>1030.7</ele>
        <time>2016-06-07T10:02:08Z</time>
      </trkpt>
      <trkpt lat="44.58932" lon="3.40912">
        <ele>1031</ele>
        <time>2016-06-07T10:02:09Z</time>
      </trkpt>
      <trkpt lat="44.58904" lon="3.40863">
        <ele>1032.1</ele>
        <time>2016-06-07T10:02:48Z</time>
      </trkpt>
      <trkpt lat="44.58896" lon="3.40833">
        <ele>1032.2</ele>
        <time>2016-06-07T10:03:08Z</time>
      </trkpt>
      <trkpt lat="44.58896" lon="3.40805">
        <ele>1032.9</ele>
        <time>2016-06-07T10:03:28Z</time>
      </trkpt>
      <trkpt lat="44.58896" lon="3.40804">
        <ele>1032.6</ele>
        <time>2016-06-07T10:03:29Z</time>
      </trkpt>
      <trkpt lat="44.58873" lon="3.40789">
        <ele>1031.4</ele>
        <time>2016-06-07T10:04:08Z</time>
      </trkpt>
      <trkpt lat="44.5885" lon="3.40786">
        <ele>1030.5</ele>
        <time>2016-06-07T10:04:28Z</time>
      </trkpt>
      <trkpt lat="44.58829" lon="3.40782">
        <ele>1028</ele>
        <time>2016-06-07T10:04:48Z</time>
      </trkpt>
      <trkpt lat="44.58828" lon="3.40782">
        <ele>1027.7</ele>
        <time>2016-06-07T10:04:49Z</time>
      </trkpt>
      <trkpt lat="44.58791" lon="3.4077">
        <ele>1026.9</ele>
        <time>2016-06-07T10:05:28Z</time>
      </trkpt>
      <trkpt lat="44.58774" lon="3.40761">
        <ele>1026.6</ele>
        <time>2016-06-07T10:05:48Z</time>
      </trkpt>
      <trkpt lat="44.58751" lon="3.40753">
        <ele>1026.1</ele>
        <time>2016-06-07T10:06:08Z</time>
      </trkpt>
      <trkpt lat="44.58751" lon="3.40752">
        <ele>1026.1</ele>
        <time>2016-06-07T10:06:09Z</time>
      </trkpt>
      <trkpt lat="44.5871" lon="3.40731">
        <ele>1024.8</ele>
        <time>2016-06-07T10:06:48Z</time>
      </trkpt>
      <trkpt lat="44.58694" lon="3.4072">
        <ele>1024.9</ele>
        <time>2016-06-07T10:07:08Z</time>
      </trkpt>
      <trkpt lat="44.58676" lon="3.40711">
        <ele>1024.7</ele>
        <time>2016-06-07T10:07:28Z</time>
      </trkpt>
      <trkpt lat="44.58675" lon="3.4071">
        <ele>1024.9</ele>
        <time>2016-06-07T10:07:29Z</time>
      </trkpt>
      <trkpt lat="44.5864" lon="3.40689">
        <ele>1023.9</ele>
        <time>2016-06-07T10:08:08Z</time>
      </trkpt>
      <trkpt lat="44.58626" lon="3.40671">
        <ele>1022.7</ele>
        <time>2016-06-07T10:08:28Z</time>
      </trkpt>
      <trkpt lat="44.58609" lon="3.40657">
        <ele>1022.3</ele>
        <time>2016-06-07T10:08:48Z</time>
      </trkpt>
      <trkpt lat="44.58608" lon="3.40657">
        <ele>1022.6</ele>
        <time>2016-06-07T10:08:49Z</time>
      </trkpt>
      <trkpt lat="44.58575" lon="3.40626">
        <ele>1023.6</ele>
        <time>2016-06-07T10:09:28Z</time>
      </trkpt>
      <trkpt lat="44.58556" lon="3.40609">
        <ele>1022.7</ele>
        <time>2016-06-07T10:09:48Z</time>
      </trkpt>
      <trkpt lat="44.58537" lon="3.40593">
        <ele>1023.2</ele>
        <time>2016-06-07T10:10:08Z</time>
      </trkpt>
      <trkpt lat="44.58536" lon="3.40592">
        <ele>1022.8</ele>
        <time>2016-06-07T10:10:09Z</time>
      </trkpt>
      <trkpt lat="44.58492" lon="3.40572">
        <ele>1022.5</ele>
        <time>2016-06-07T10:10:48Z</time>
      </trkpt>
      <trkpt lat="44.58469" lon="3.40564">
        <ele>1021.6</ele>
        <time>2016-06-07T10:11:08Z</time>
      </trkpt>
      <trkpt lat="44.58446" lon="3.40564">
        <ele>1021.6</ele>
        <time>2016-06-07T10:11:28Z</time>
      </trkpt>
      <trkpt lat="44.58445" lon="3.40564">
        <ele>1021.6</ele>
        <time>2016-06-07T10:11:29Z</time>
      </trkpt>
      <trkpt lat="44.58408" lon="3.40559">
        <ele>1021.8</ele>
        <time>2016-06-07T10:12:08Z</time>
      </trkpt>
      <trkpt lat="44.5838" lon="3.40557">
        <ele>1021.2</ele>
        <time>2016-06-07T10:12:28Z</time>
      </trkpt>
      <trkpt lat="44.58357" lon="3.40552">
        <ele>1022.6</ele>
        <time>2016-06-07T10:12:48Z</time>
      </trkpt>
      <trkpt lat="44.58357" lon="3.40553">
        <ele>1022.5</ele>
        <time>2016-06-07T10:12:49Z</time>
      </trkpt>
      <trkpt lat="44.58314" lon="3.40539">
        <ele>1022.7</ele>
        <time>2016-06-07T10:13:28Z</time>
      </trkpt>
      <trkpt lat="44.5829" lon="3.40534">
        <ele>1022.9</ele>
        <time>2016-06-07T10:13:48Z</time>
      </trkpt>
      <trkpt lat="44.58271" lon="3.40524">
        <ele>1024.3</ele>
        <time>2016-06-07T10:14:08Z</time>
      </trkpt>
      <trkpt lat="44.58271" lon="3.40524">
        <ele>1024.5</ele>
        <time>2016-06-07T10:14:09Z</time>
      </trkpt>
      <trkpt lat="44.58233" lon="3.405">
        <ele>1025</ele>
        <time>2016-06-07T10:14:48Z</time>
      </trkpt>
      <trkpt lat="44.58208" lon="3.40499">
        <ele>1024.5</ele>
        <time>2016-06-07T10:15:08Z</time>
      </trkpt>
      <trkpt lat="44.58187" lon="3.40502">
        <ele>1025.7</ele>
        <time>2016-06-07T10:15:28Z</time>
      </trkpt>
      <trkpt lat="44.58186" lon="3.40502">
        <ele>1025.2</ele>
        <time>2016-06-07T10:15:29Z</time>
      </trkpt>
      <trkpt lat="44.58138" lon="3.40524">
        <ele>1025.2</ele>
        <time>2016-06-07T10:16:08Z</time>
      </trkpt>
      <trkpt lat="44.58118" lon="3.40537">
        <ele>1026.8</ele>
        <time>2016-06-07T10:16:28Z</time>
      </trkpt>
      <trkpt lat="44.58095" lon="3.40547">
        <ele>1027.4</ele>
        <time>2016-06-07T10:16:48Z</time>
      </trkpt>
      <trkpt lat="44.58094" lon="3.40548">
        <ele>1027.7</ele>
        <time>2016-06-07T10:16:49Z</time>
      </trkpt>
      <trkpt lat="44.58072" lon="3.40562">
        <ele>1029.3</ele>
        <time>2016-06-07T10:17:28Z</time>
      </trkpt>
      <trkpt lat="44.5807" lon="3.40565">
        <ele>1028.5</ele>
        <time>2016-06-07T10:17:48Z</time>
      </trkpt>
      <trkpt lat="44.58055" lon="3.40562">
        <ele>1028.3</ele>
        <time>2016-06-07T10:18:08Z</time>
      </trkpt>
      <trkpt lat="44.58054" lon="3.40562">
        <ele>1028.5</ele>
        <time>2016-06-07T10:18:09Z</time>
      </trkpt>
      <trkpt lat="44.58022" lon="3.40556">
        <ele>1027.3</ele>
        <time>2016-06-07T10:18:48Z</time>
      </trkpt>
      <trkpt lat="44.58" lon="3.40555">
        <ele>1025.6</ele>
        <time>2016-06-07T10:19:08Z</time>
      </trkpt>
      <trkpt lat="44.5798" lon="3.40557">
        <ele>1025.1</ele>
        <time>2016-06-07T10:19:28Z</time>
      </trkpt>
      <trkpt lat="44.57979" lon="3.40557">
        <ele>1024.7</ele>
        <time>2016-06-07T10:19:29Z</time>
      </trkpt>
      <trkpt lat="44.57937" lon="3.40559">
        <ele>1024</ele>
        <time>2016-06-07T10:20:08Z</time>
      </trkpt>
      <trkpt lat="44.57914" lon="3.4056">
        <ele>1023</ele>
        <time>2016-06-07T10:20:28Z</time>
      </trkpt>
      <trkpt lat="44.57892" lon="3.40557">
        <ele>1021.8</ele>
        <time>2016-06-07T10:20:48Z</time>
      </trkpt>
      <trkpt lat="44.57891" lon="3.40557">
        <ele>1022.2</ele>
        <time>2016-06-07T10:20:49Z</time>
      </trkpt>
      <trkpt lat="44.57847" lon="3.4055">
        <ele>1020.4</ele>
        <time>2016-06-07T10:21:28Z</time>
      </trkpt>
      <trkpt lat="44.57826" lon="3.40543">
        <ele>1022.7</ele>
        <time>2016-06-07T10:21:48Z</time>
      </trkpt>
      <trkpt lat="44.57803" lon="3.40538">
        <ele>1022.7</ele>
        <time>2016-06-07T10:22:08Z</time>
      </trkpt>
      <trkpt lat="44.57802" lon="3.40537">
        <ele>1022.7</ele>
        <time>2016-06-07T10:22:09Z</time>
      </trkpt>
      <trkpt lat="44.5776" lon="3.4053">
        <ele>1022</ele>
        <time>2016-06-07T10:22:48Z</time>
      </trkpt>
      <trkpt lat="44.57739" lon="3.40528">
        <ele>1022.8</ele>
        <time>2016-06-07T10:23:08Z</time>
      </trkpt>
      <trkpt lat="44.57719" lon="3.40522">
        <ele>1023.3</ele>
        <time>2016-06-07T10:23:27Z</time>
      </trkpt>
      <trkpt lat="44.57718" lon="3.40522">
        <ele>1023.3</ele>
        <time>2016-06-07T10:23:29Z</time>
      </trkpt>
      <trkpt lat="44.57674" lon="3.40525">
        <ele>1022.6</ele>
        <time>2016-06-07T10:24:07Z</time>
      </trkpt>
      <trkpt lat="44.57651" lon="3.40527">
        <ele>1022.1</ele>
        <time>2016-06-07T10:24:27Z</time>
      </trkpt>
      <trkpt lat="44.57627" lon="3.40529">
        <ele>1022.7</ele>
        <time>2016-06-07T10:24:47Z</time>
      </trkpt>
      <trkpt lat="44.57626" lon="3.40529">
        <ele>1023.1</ele>
        <time>2016-06-07T10:24:48Z</time>
      </trkpt>
      <trkpt lat="44.57596" lon="3.40525">
        <ele>1023.6</ele>
        <time>2016-06-07T10:25:27Z</time>
      </trkpt>
      <trkpt lat="44.57577" lon="3.40517">
        <ele>1023.5</ele>
        <time>2016-06-07T10:25:47Z</time>
      </trkpt>
      <trkpt lat="44.57572" lon="3.40513">
        <ele>1024</ele>
        <time>2016-06-07T10:26:07Z</time>
      </trkpt>
      <trkpt lat="44.57572" lon="3.40513">
        <ele>1023.9</ele>
        <time>2016-06-07T10:26:08Z</time>
      </trkpt>
      <trkpt lat="44.57537" lon="3.40505">
        <ele>1023.4</ele>
        <time>2016-06-07T10:26:47Z</time>
      </trkpt>
      <trkpt lat="44.57528" lon="3.40485">
        <ele>1023.6</ele>
        <time>2016-06-07T10:27:07Z</time>
      </trkpt>
      <trkpt lat="44.57524" lon="3.40475">
        <ele>1023.9</ele>
        <time>2016-06-07T10:27:27Z</time>
      </trkpt>
      <trkpt lat="44.57524" lon="3.40476">
        <ele>1024.1</ele>
        <time>2016-06-07T10:27:28Z</time>
      </trkpt>
      <trkpt lat="44.57513" lon="3.40472">
        <ele>1024.1</ele>
        <time>2016-06-07T10:28:07Z</time>
      </trkpt>
      <trkpt lat="44.57516" lon="3.40478">
        <ele>1024</ele>
        <time>2016-06-07T10:28:27Z</time>
      </trkpt>
      <trkpt lat="44.5752" lon="3.40479">
        <ele>1025</ele>
        <time>2016-06-07T10:28:47Z</time>
      </trkpt>
      <trkpt lat="44.5752" lon="3.40479">
        <ele>1024.6</ele>
        <time>2016-06-07T10:28:48Z</time>
      </trkpt>
    </trkseg>
  </trk>
</gpx>